<?xml version="1.0" encoding="UTF-8" standalone="no" ?>
<gpx xmlns="http://www.topografix.com/GPX/1/1" xmlns:xsi="http://www.w3.org/2001/XMLSchema-instance" xsi:schemaLocation="http://www.topografix.com/GPX/1/1 http://www.topografix.com/GPX/1/1/gpx.xsd" version="1.1" creator="VisuGPX - https://www.visugpx.com">
  <metadata>
    <name>Vacqueyras : Les Crottes - La Briquette - Roque Rascasse - Mon Rêve - Dardel</name>
  </metadata>
  <trk>
    <name><![CDATA[2022-01-29 11:57:04 nettoyé]]></name>
    <extensions>
      <line xmlns="http://www.topografix.com/GPX/gpx_style/0/2">
        <color>0000FF</color>
        <width>4</width>
      </line>
    </extensions>
    <trkseg>
      <trkpt lat="44.13831" lon="4.98703">
        <ele>123</ele>
        <time>2022-01-29T07:58:37Z</time>
      </trkpt>
      <trkpt lat="44.13832" lon="4.98728">
        <ele>124</ele>
        <time>2022-01-29T08:00:32Z</time>
      </trkpt>
      <trkpt lat="44.13831" lon="4.98751">
        <ele>124</ele>
        <time>2022-01-29T08:00:52Z</time>
      </trkpt>
      <trkpt lat="44.13836" lon="4.98774">
        <ele>124</ele>
        <time>2022-01-29T08:01:04Z</time>
      </trkpt>
      <trkpt lat="44.13843" lon="4.98791">
        <ele>123</ele>
        <time>2022-01-29T08:01:16Z</time>
      </trkpt>
      <trkpt lat="44.1386" lon="4.98821">
        <ele>123</ele>
        <time>2022-01-29T08:01:29Z</time>
      </trkpt>
      <trkpt lat="44.13873" lon="4.98847">
        <ele>124</ele>
        <time>2022-01-29T08:01:42Z</time>
      </trkpt>
      <trkpt lat="44.13882" lon="4.98865">
        <ele>125</ele>
        <time>2022-01-29T08:01:51Z</time>
      </trkpt>
      <trkpt lat="44.139" lon="4.98895">
        <ele>125</ele>
        <time>2022-01-29T08:02:06Z</time>
      </trkpt>
      <trkpt lat="44.13908" lon="4.98922">
        <ele>126</ele>
        <time>2022-01-29T08:02:17Z</time>
      </trkpt>
      <trkpt lat="44.13897" lon="4.98948">
        <ele>127</ele>
        <time>2022-01-29T08:02:29Z</time>
      </trkpt>
      <trkpt lat="44.13893" lon="4.98956">
        <ele>127</ele>
        <time>2022-01-29T08:02:33Z</time>
      </trkpt>
      <trkpt lat="44.13885" lon="4.98963">
        <ele>128</ele>
        <time>2022-01-29T08:02:37Z</time>
      </trkpt>
      <trkpt lat="44.13876" lon="4.98958">
        <ele>127</ele>
        <time>2022-01-29T08:02:43Z</time>
      </trkpt>
      <trkpt lat="44.13873" lon="4.98955">
        <ele>127</ele>
        <time>2022-01-29T08:02:45Z</time>
      </trkpt>
      <trkpt lat="44.13856" lon="4.98964">
        <ele>127</ele>
        <time>2022-01-29T08:02:55Z</time>
      </trkpt>
      <trkpt lat="44.13834" lon="4.98991">
        <ele>127</ele>
        <time>2022-01-29T08:03:10Z</time>
      </trkpt>
      <trkpt lat="44.13813" lon="4.99009">
        <ele>127</ele>
        <time>2022-01-29T08:03:23Z</time>
      </trkpt>
      <trkpt lat="44.13788" lon="4.99029">
        <ele>127</ele>
        <time>2022-01-29T08:03:38Z</time>
      </trkpt>
      <trkpt lat="44.13766" lon="4.99048">
        <ele>127</ele>
        <time>2022-01-29T08:03:52Z</time>
      </trkpt>
      <trkpt lat="44.13743" lon="4.9907">
        <ele>126</ele>
        <time>2022-01-29T08:04:07Z</time>
      </trkpt>
      <trkpt lat="44.1372" lon="4.99091">
        <ele>125</ele>
        <time>2022-01-29T08:04:22Z</time>
      </trkpt>
      <trkpt lat="44.13701" lon="4.99108">
        <ele>124</ele>
        <time>2022-01-29T08:04:35Z</time>
      </trkpt>
      <trkpt lat="44.13683" lon="4.99119">
        <ele>123</ele>
        <time>2022-01-29T08:04:46Z</time>
      </trkpt>
      <trkpt lat="44.1366" lon="4.99138">
        <ele>122</ele>
        <time>2022-01-29T08:05:00Z</time>
      </trkpt>
      <trkpt lat="44.13641" lon="4.99157">
        <ele>122</ele>
        <time>2022-01-29T08:05:13Z</time>
      </trkpt>
      <trkpt lat="44.13619" lon="4.99182">
        <ele>121</ele>
        <time>2022-01-29T08:05:28Z</time>
      </trkpt>
      <trkpt lat="44.13599" lon="4.99201">
        <ele>121</ele>
        <time>2022-01-29T08:05:41Z</time>
      </trkpt>
      <trkpt lat="44.13576" lon="4.99226">
        <ele>121</ele>
        <time>2022-01-29T08:05:56Z</time>
      </trkpt>
      <trkpt lat="44.13553" lon="4.99252">
        <ele>120</ele>
        <time>2022-01-29T08:06:11Z</time>
      </trkpt>
      <trkpt lat="44.13533" lon="4.99271">
        <ele>119</ele>
        <time>2022-01-29T08:06:24Z</time>
      </trkpt>
      <trkpt lat="44.13514" lon="4.99289">
        <ele>118</ele>
        <time>2022-01-29T08:06:36Z</time>
      </trkpt>
      <trkpt lat="44.1349" lon="4.9931">
        <ele>116</ele>
        <time>2022-01-29T08:06:50Z</time>
      </trkpt>
      <trkpt lat="44.13486" lon="4.99318">
        <ele>116</ele>
        <time>2022-01-29T08:06:54Z</time>
      </trkpt>
      <trkpt lat="44.13485" lon="4.9932">
        <ele>116</ele>
        <time>2022-01-29T08:06:55Z</time>
      </trkpt>
      <trkpt lat="44.13485" lon="4.99322">
        <ele>116</ele>
        <time>2022-01-29T08:06:56Z</time>
      </trkpt>
      <trkpt lat="44.13485" lon="4.99323">
        <ele>116</ele>
        <time>2022-01-29T08:06:57Z</time>
      </trkpt>
      <trkpt lat="44.13485" lon="4.99325">
        <ele>116</ele>
        <time>2022-01-29T08:06:58Z</time>
      </trkpt>
      <trkpt lat="44.13485" lon="4.99327">
        <ele>116</ele>
        <time>2022-01-29T08:06:59Z</time>
      </trkpt>
      <trkpt lat="44.13485" lon="4.99328">
        <ele>117</ele>
        <time>2022-01-29T08:07:00Z</time>
      </trkpt>
      <trkpt lat="44.13489" lon="4.99337">
        <ele>117</ele>
        <time>2022-01-29T08:07:05Z</time>
      </trkpt>
      <trkpt lat="44.13489" lon="4.99343">
        <ele>118</ele>
        <time>2022-01-29T08:07:09Z</time>
      </trkpt>
      <trkpt lat="44.13488" lon="4.99349">
        <ele>118</ele>
        <time>2022-01-29T08:07:20Z</time>
      </trkpt>
      <trkpt lat="44.13469" lon="4.99358">
        <ele>116</ele>
        <time>2022-01-29T08:07:31Z</time>
      </trkpt>
      <trkpt lat="44.13449" lon="4.99368">
        <ele>114</ele>
        <time>2022-01-29T08:07:42Z</time>
      </trkpt>
      <trkpt lat="44.13425" lon="4.99386">
        <ele>113</ele>
        <time>2022-01-29T08:07:56Z</time>
      </trkpt>
      <trkpt lat="44.13407" lon="4.99401">
        <ele>113</ele>
        <time>2022-01-29T08:08:07Z</time>
      </trkpt>
      <trkpt lat="44.13391" lon="4.99416">
        <ele>113</ele>
        <time>2022-01-29T08:08:17Z</time>
      </trkpt>
      <trkpt lat="44.13391" lon="4.99418">
        <ele>113</ele>
        <time>2022-01-29T08:08:18Z</time>
      </trkpt>
      <trkpt lat="44.13391" lon="4.9942">
        <ele>113</ele>
        <time>2022-01-29T08:08:19Z</time>
      </trkpt>
      <trkpt lat="44.13392" lon="4.99422">
        <ele>113</ele>
        <time>2022-01-29T08:08:20Z</time>
      </trkpt>
      <trkpt lat="44.13393" lon="4.99424">
        <ele>113</ele>
        <time>2022-01-29T08:08:21Z</time>
      </trkpt>
      <trkpt lat="44.13394" lon="4.99426">
        <ele>113</ele>
        <time>2022-01-29T08:08:22Z</time>
      </trkpt>
      <trkpt lat="44.13395" lon="4.99428">
        <ele>114</ele>
        <time>2022-01-29T08:08:23Z</time>
      </trkpt>
      <trkpt lat="44.13403" lon="4.9944">
        <ele>114</ele>
        <time>2022-01-29T08:08:29Z</time>
      </trkpt>
      <trkpt lat="44.13402" lon="4.99443">
        <ele>115</ele>
        <time>2022-01-29T08:08:30Z</time>
      </trkpt>
      <trkpt lat="44.13402" lon="4.99445">
        <ele>115</ele>
        <time>2022-01-29T08:08:31Z</time>
      </trkpt>
      <trkpt lat="44.13395" lon="4.99474">
        <ele>115</ele>
        <time>2022-01-29T08:08:43Z</time>
      </trkpt>
      <trkpt lat="44.13396" lon="4.99478">
        <ele>115</ele>
        <time>2022-01-29T08:08:45Z</time>
      </trkpt>
      <trkpt lat="44.13397" lon="4.99479">
        <ele>116</ele>
        <time>2022-01-29T08:08:46Z</time>
      </trkpt>
      <trkpt lat="44.13398" lon="4.9948">
        <ele>116</ele>
        <time>2022-01-29T08:08:47Z</time>
      </trkpt>
      <trkpt lat="44.13399" lon="4.99481">
        <ele>116</ele>
        <time>2022-01-29T08:08:48Z</time>
      </trkpt>
      <trkpt lat="44.134" lon="4.99482">
        <ele>116</ele>
        <time>2022-01-29T08:08:49Z</time>
      </trkpt>
      <trkpt lat="44.13407" lon="4.99489">
        <ele>116</ele>
        <time>2022-01-29T08:08:54Z</time>
      </trkpt>
      <trkpt lat="44.13422" lon="4.99515">
        <ele>118</ele>
        <time>2022-01-29T08:09:07Z</time>
      </trkpt>
      <trkpt lat="44.13437" lon="4.99533">
        <ele>120</ele>
        <time>2022-01-29T08:09:19Z</time>
      </trkpt>
      <trkpt lat="44.13467" lon="4.9955">
        <ele>122</ele>
        <time>2022-01-29T08:09:33Z</time>
      </trkpt>
      <trkpt lat="44.13493" lon="4.99559">
        <ele>123</ele>
        <time>2022-01-29T08:09:47Z</time>
      </trkpt>
      <trkpt lat="44.13512" lon="4.99566">
        <ele>124</ele>
        <time>2022-01-29T08:09:58Z</time>
      </trkpt>
      <trkpt lat="44.13536" lon="4.99576">
        <ele>125</ele>
        <time>2022-01-29T08:10:11Z</time>
      </trkpt>
      <trkpt lat="44.1356" lon="4.99573">
        <ele>125</ele>
        <time>2022-01-29T08:10:23Z</time>
      </trkpt>
      <trkpt lat="44.13583" lon="4.99567">
        <ele>124</ele>
        <time>2022-01-29T08:10:35Z</time>
      </trkpt>
      <trkpt lat="44.13604" lon="4.99572">
        <ele>126</ele>
        <time>2022-01-29T08:10:47Z</time>
      </trkpt>
      <trkpt lat="44.13609" lon="4.99588">
        <ele>127</ele>
        <time>2022-01-29T08:10:55Z</time>
      </trkpt>
      <trkpt lat="44.13616" lon="4.99612">
        <ele>130</ele>
        <time>2022-01-29T08:11:06Z</time>
      </trkpt>
      <trkpt lat="44.13621" lon="4.99647">
        <ele>133</ele>
        <time>2022-01-29T08:11:19Z</time>
      </trkpt>
      <trkpt lat="44.13624" lon="4.99678">
        <ele>134</ele>
        <time>2022-01-29T08:11:31Z</time>
      </trkpt>
      <trkpt lat="44.13624" lon="4.99713">
        <ele>135</ele>
        <time>2022-01-29T08:11:45Z</time>
      </trkpt>
      <trkpt lat="44.13615" lon="4.99737">
        <ele>138</ele>
        <time>2022-01-29T08:11:56Z</time>
      </trkpt>
      <trkpt lat="44.13604" lon="4.99765">
        <ele>140</ele>
        <time>2022-01-29T08:12:08Z</time>
      </trkpt>
      <trkpt lat="44.13592" lon="4.99792">
        <ele>141</ele>
        <time>2022-01-29T08:12:20Z</time>
      </trkpt>
      <trkpt lat="44.13578" lon="4.99818">
        <ele>142</ele>
        <time>2022-01-29T08:12:32Z</time>
      </trkpt>
      <trkpt lat="44.13576" lon="4.9983">
        <ele>142</ele>
        <time>2022-01-29T08:12:37Z</time>
      </trkpt>
      <trkpt lat="44.13576" lon="4.99833">
        <ele>142</ele>
        <time>2022-01-29T08:12:38Z</time>
      </trkpt>
      <trkpt lat="44.13577" lon="4.99837">
        <ele>141</ele>
        <time>2022-01-29T08:12:39Z</time>
      </trkpt>
      <trkpt lat="44.13587" lon="4.99871">
        <ele>137</ele>
        <time>2022-01-29T08:12:51Z</time>
      </trkpt>
      <trkpt lat="44.13596" lon="4.99896">
        <ele>135</ele>
        <time>2022-01-29T08:13:01Z</time>
      </trkpt>
      <trkpt lat="44.13608" lon="4.99921">
        <ele>134</ele>
        <time>2022-01-29T08:13:13Z</time>
      </trkpt>
      <trkpt lat="44.13616" lon="4.99942">
        <ele>135</ele>
        <time>2022-01-29T08:13:23Z</time>
      </trkpt>
      <trkpt lat="44.13615" lon="4.99944">
        <ele>135</ele>
        <time>2022-01-29T08:13:24Z</time>
      </trkpt>
      <trkpt lat="44.13595" lon="4.99953">
        <ele>136</ele>
        <time>2022-01-29T08:13:35Z</time>
      </trkpt>
      <trkpt lat="44.13577" lon="4.99966">
        <ele>137</ele>
        <time>2022-01-29T08:13:46Z</time>
      </trkpt>
      <trkpt lat="44.13556" lon="4.99981">
        <ele>138</ele>
        <time>2022-01-29T08:13:58Z</time>
      </trkpt>
      <trkpt lat="44.13534" lon="4.99995">
        <ele>138</ele>
        <time>2022-01-29T08:14:10Z</time>
      </trkpt>
      <trkpt lat="44.13514" lon="5.00009">
        <ele>140</ele>
        <time>2022-01-29T08:14:21Z</time>
      </trkpt>
      <trkpt lat="44.13494" lon="5.00025">
        <ele>140</ele>
        <time>2022-01-29T08:14:33Z</time>
      </trkpt>
      <trkpt lat="44.13476" lon="5.0004">
        <ele>140</ele>
        <time>2022-01-29T08:14:44Z</time>
      </trkpt>
      <trkpt lat="44.13455" lon="5.00055">
        <ele>141</ele>
        <time>2022-01-29T08:14:56Z</time>
      </trkpt>
      <trkpt lat="44.13436" lon="5.00055">
        <ele>142</ele>
        <time>2022-01-29T08:15:06Z</time>
      </trkpt>
      <trkpt lat="44.13416" lon="5.00068">
        <ele>143</ele>
        <time>2022-01-29T08:15:18Z</time>
      </trkpt>
      <trkpt lat="44.13399" lon="5.00084">
        <ele>143</ele>
        <time>2022-01-29T08:15:30Z</time>
      </trkpt>
      <trkpt lat="44.1338" lon="5.00103">
        <ele>142</ele>
        <time>2022-01-29T08:15:42Z</time>
      </trkpt>
      <trkpt lat="44.13362" lon="5.00122">
        <ele>142</ele>
        <time>2022-01-29T08:15:54Z</time>
      </trkpt>
      <trkpt lat="44.1334" lon="5.00138">
        <ele>142</ele>
        <time>2022-01-29T08:16:07Z</time>
      </trkpt>
      <trkpt lat="44.13323" lon="5.00149">
        <ele>141</ele>
        <time>2022-01-29T08:16:17Z</time>
      </trkpt>
      <trkpt lat="44.13304" lon="5.00159">
        <ele>140</ele>
        <time>2022-01-29T08:16:28Z</time>
      </trkpt>
      <trkpt lat="44.13282" lon="5.0017">
        <ele>138</ele>
        <time>2022-01-29T08:16:41Z</time>
      </trkpt>
      <trkpt lat="44.13261" lon="5.0018">
        <ele>135</ele>
        <time>2022-01-29T08:16:52Z</time>
      </trkpt>
      <trkpt lat="44.13234" lon="5.00194">
        <ele>131</ele>
        <time>2022-01-29T08:17:06Z</time>
      </trkpt>
      <trkpt lat="44.13211" lon="5.00205">
        <ele>130</ele>
        <time>2022-01-29T08:17:18Z</time>
      </trkpt>
      <trkpt lat="44.13194" lon="5.00213">
        <ele>130</ele>
        <time>2022-01-29T08:17:28Z</time>
      </trkpt>
      <trkpt lat="44.13179" lon="5.00217">
        <ele>130</ele>
        <time>2022-01-29T08:17:38Z</time>
      </trkpt>
      <trkpt lat="44.13177" lon="5.00215">
        <ele>130</ele>
        <time>2022-01-29T08:17:47Z</time>
      </trkpt>
      <trkpt lat="44.13176" lon="5.00213">
        <ele>130</ele>
        <time>2022-01-29T08:17:48Z</time>
      </trkpt>
      <trkpt lat="44.13175" lon="5.00211">
        <ele>130</ele>
        <time>2022-01-29T08:17:49Z</time>
      </trkpt>
      <trkpt lat="44.13174" lon="5.00209">
        <ele>130</ele>
        <time>2022-01-29T08:17:50Z</time>
      </trkpt>
      <trkpt lat="44.13173" lon="5.00208">
        <ele>130</ele>
        <time>2022-01-29T08:17:51Z</time>
      </trkpt>
      <trkpt lat="44.13172" lon="5.00206">
        <ele>130</ele>
        <time>2022-01-29T08:17:52Z</time>
      </trkpt>
      <trkpt lat="44.13172" lon="5.00203">
        <ele>130</ele>
        <time>2022-01-29T08:17:53Z</time>
      </trkpt>
      <trkpt lat="44.13171" lon="5.00201">
        <ele>130</ele>
        <time>2022-01-29T08:17:54Z</time>
      </trkpt>
      <trkpt lat="44.13171" lon="5.00199">
        <ele>130</ele>
        <time>2022-01-29T08:17:55Z</time>
      </trkpt>
      <trkpt lat="44.13167" lon="5.00174">
        <ele>130</ele>
        <time>2022-01-29T08:18:06Z</time>
      </trkpt>
      <trkpt lat="44.13168" lon="5.00142">
        <ele>130</ele>
        <time>2022-01-29T08:18:19Z</time>
      </trkpt>
      <trkpt lat="44.13168" lon="5.00124">
        <ele>130</ele>
        <time>2022-01-29T08:18:30Z</time>
      </trkpt>
      <trkpt lat="44.13164" lon="5.00123">
        <ele>130</ele>
        <time>2022-01-29T08:18:35Z</time>
      </trkpt>
      <trkpt lat="44.13157" lon="5.00114">
        <ele>130</ele>
        <time>2022-01-29T08:18:49Z</time>
      </trkpt>
      <trkpt lat="44.13155" lon="5.00117">
        <ele>131</ele>
        <time>2022-01-29T08:18:52Z</time>
      </trkpt>
      <trkpt lat="44.13147" lon="5.00123">
        <ele>131</ele>
        <time>2022-01-29T08:19:02Z</time>
      </trkpt>
      <trkpt lat="44.13143" lon="5.00147">
        <ele>131</ele>
        <time>2022-01-29T08:19:14Z</time>
      </trkpt>
      <trkpt lat="44.13142" lon="5.00151">
        <ele>131</ele>
        <time>2022-01-29T08:19:17Z</time>
      </trkpt>
      <trkpt lat="44.13139" lon="5.00157">
        <ele>131</ele>
        <time>2022-01-29T08:19:20Z</time>
      </trkpt>
      <trkpt lat="44.13137" lon="5.00168">
        <ele>131</ele>
        <time>2022-01-29T08:19:25Z</time>
      </trkpt>
      <trkpt lat="44.13137" lon="5.0017">
        <ele>131</ele>
        <time>2022-01-29T08:19:26Z</time>
      </trkpt>
      <trkpt lat="44.13138" lon="5.00172">
        <ele>130</ele>
        <time>2022-01-29T08:19:27Z</time>
      </trkpt>
      <trkpt lat="44.13138" lon="5.00174">
        <ele>130</ele>
        <time>2022-01-29T08:19:28Z</time>
      </trkpt>
      <trkpt lat="44.13137" lon="5.00178">
        <ele>131</ele>
        <time>2022-01-29T08:19:30Z</time>
      </trkpt>
      <trkpt lat="44.13136" lon="5.0018">
        <ele>131</ele>
        <time>2022-01-29T08:19:31Z</time>
      </trkpt>
      <trkpt lat="44.13135" lon="5.00183">
        <ele>131</ele>
        <time>2022-01-29T08:19:32Z</time>
      </trkpt>
      <trkpt lat="44.13133" lon="5.00187">
        <ele>132</ele>
        <time>2022-01-29T08:19:34Z</time>
      </trkpt>
      <trkpt lat="44.13132" lon="5.00188">
        <ele>133</ele>
        <time>2022-01-29T08:19:35Z</time>
      </trkpt>
      <trkpt lat="44.1313" lon="5.0019">
        <ele>133</ele>
        <time>2022-01-29T08:19:36Z</time>
      </trkpt>
      <trkpt lat="44.13127" lon="5.00199">
        <ele>133</ele>
        <time>2022-01-29T08:19:44Z</time>
      </trkpt>
      <trkpt lat="44.13126" lon="5.0021">
        <ele>133</ele>
        <time>2022-01-29T08:19:53Z</time>
      </trkpt>
      <trkpt lat="44.13125" lon="5.00214">
        <ele>132</ele>
        <time>2022-01-29T08:19:56Z</time>
      </trkpt>
      <trkpt lat="44.13125" lon="5.00217">
        <ele>132</ele>
        <time>2022-01-29T08:19:58Z</time>
      </trkpt>
      <trkpt lat="44.13125" lon="5.00225">
        <ele>131</ele>
        <time>2022-01-29T08:20:02Z</time>
      </trkpt>
      <trkpt lat="44.13124" lon="5.00227">
        <ele>131</ele>
        <time>2022-01-29T08:20:03Z</time>
      </trkpt>
      <trkpt lat="44.13124" lon="5.0023">
        <ele>131</ele>
        <time>2022-01-29T08:20:04Z</time>
      </trkpt>
      <trkpt lat="44.13123" lon="5.00232">
        <ele>131</ele>
        <time>2022-01-29T08:20:05Z</time>
      </trkpt>
      <trkpt lat="44.13123" lon="5.00234">
        <ele>131</ele>
        <time>2022-01-29T08:20:06Z</time>
      </trkpt>
      <trkpt lat="44.13122" lon="5.00236">
        <ele>131</ele>
        <time>2022-01-29T08:20:07Z</time>
      </trkpt>
      <trkpt lat="44.13121" lon="5.00238">
        <ele>131</ele>
        <time>2022-01-29T08:20:08Z</time>
      </trkpt>
      <trkpt lat="44.1312" lon="5.00239">
        <ele>131</ele>
        <time>2022-01-29T08:20:09Z</time>
      </trkpt>
      <trkpt lat="44.13115" lon="5.00263">
        <ele>130</ele>
        <time>2022-01-29T08:20:20Z</time>
      </trkpt>
      <trkpt lat="44.1311" lon="5.00284">
        <ele>130</ele>
        <time>2022-01-29T08:20:30Z</time>
      </trkpt>
      <trkpt lat="44.13102" lon="5.00301">
        <ele>132</ele>
        <time>2022-01-29T08:20:40Z</time>
      </trkpt>
      <trkpt lat="44.13101" lon="5.00302">
        <ele>132</ele>
        <time>2022-01-29T08:20:41Z</time>
      </trkpt>
      <trkpt lat="44.131" lon="5.00304">
        <ele>132</ele>
        <time>2022-01-29T08:20:42Z</time>
      </trkpt>
      <trkpt lat="44.13099" lon="5.00305">
        <ele>132</ele>
        <time>2022-01-29T08:20:43Z</time>
      </trkpt>
      <trkpt lat="44.13094" lon="5.00307">
        <ele>133</ele>
        <time>2022-01-29T08:20:49Z</time>
      </trkpt>
      <trkpt lat="44.13091" lon="5.00307">
        <ele>133</ele>
        <time>2022-01-29T08:20:51Z</time>
      </trkpt>
      <trkpt lat="44.13088" lon="5.00308">
        <ele>134</ele>
        <time>2022-01-29T08:20:53Z</time>
      </trkpt>
      <trkpt lat="44.13085" lon="5.00312">
        <ele>134</ele>
        <time>2022-01-29T08:20:56Z</time>
      </trkpt>
      <trkpt lat="44.13083" lon="5.00315">
        <ele>134</ele>
        <time>2022-01-29T08:20:58Z</time>
      </trkpt>
      <trkpt lat="44.13078" lon="5.00327">
        <ele>138</ele>
        <time>2022-01-29T08:21:04Z</time>
      </trkpt>
      <trkpt lat="44.13075" lon="5.00336">
        <ele>140</ele>
        <time>2022-01-29T08:21:09Z</time>
      </trkpt>
      <trkpt lat="44.13075" lon="5.0034">
        <ele>140</ele>
        <time>2022-01-29T08:21:11Z</time>
      </trkpt>
      <trkpt lat="44.13073" lon="5.00347">
        <ele>140</ele>
        <time>2022-01-29T08:21:20Z</time>
      </trkpt>
      <trkpt lat="44.13071" lon="5.00356">
        <ele>140</ele>
        <time>2022-01-29T08:21:29Z</time>
      </trkpt>
      <trkpt lat="44.13074" lon="5.00366">
        <ele>139</ele>
        <time>2022-01-29T08:21:39Z</time>
      </trkpt>
      <trkpt lat="44.13076" lon="5.00375">
        <ele>138</ele>
        <time>2022-01-29T08:21:48Z</time>
      </trkpt>
      <trkpt lat="44.13074" lon="5.00376">
        <ele>139</ele>
        <time>2022-01-29T08:21:49Z</time>
      </trkpt>
      <trkpt lat="44.13071" lon="5.00381">
        <ele>139</ele>
        <time>2022-01-29T08:21:57Z</time>
      </trkpt>
      <trkpt lat="44.13071" lon="5.00388">
        <ele>139</ele>
        <time>2022-01-29T08:22:02Z</time>
      </trkpt>
      <trkpt lat="44.13071" lon="5.0039">
        <ele>139</ele>
        <time>2022-01-29T08:22:03Z</time>
      </trkpt>
      <trkpt lat="44.1307" lon="5.00402">
        <ele>138</ele>
        <time>2022-01-29T08:22:08Z</time>
      </trkpt>
      <trkpt lat="44.13065" lon="5.00424">
        <ele>138</ele>
        <time>2022-01-29T08:22:20Z</time>
      </trkpt>
      <trkpt lat="44.13063" lon="5.00437">
        <ele>138</ele>
        <time>2022-01-29T08:22:29Z</time>
      </trkpt>
      <trkpt lat="44.13061" lon="5.0044">
        <ele>139</ele>
        <time>2022-01-29T08:22:32Z</time>
      </trkpt>
      <trkpt lat="44.13057" lon="5.00444">
        <ele>139</ele>
        <time>2022-01-29T08:22:43Z</time>
      </trkpt>
      <trkpt lat="44.13056" lon="5.00444">
        <ele>139</ele>
        <time>2022-01-29T08:22:45Z</time>
      </trkpt>
      <trkpt lat="44.13048" lon="5.00446">
        <ele>141</ele>
        <time>2022-01-29T08:22:55Z</time>
      </trkpt>
      <trkpt lat="44.13043" lon="5.00455">
        <ele>142</ele>
        <time>2022-01-29T08:23:04Z</time>
      </trkpt>
      <trkpt lat="44.13035" lon="5.00467">
        <ele>143</ele>
        <time>2022-01-29T08:23:16Z</time>
      </trkpt>
      <trkpt lat="44.13034" lon="5.00468">
        <ele>143</ele>
        <time>2022-01-29T08:23:17Z</time>
      </trkpt>
      <trkpt lat="44.13031" lon="5.00486">
        <ele>142</ele>
        <time>2022-01-29T08:23:26Z</time>
      </trkpt>
      <trkpt lat="44.1303" lon="5.00488">
        <ele>142</ele>
        <time>2022-01-29T08:23:28Z</time>
      </trkpt>
      <trkpt lat="44.13022" lon="5.00493">
        <ele>144</ele>
        <time>2022-01-29T08:23:37Z</time>
      </trkpt>
      <trkpt lat="44.13016" lon="5.00495">
        <ele>147</ele>
        <time>2022-01-29T08:23:45Z</time>
      </trkpt>
      <trkpt lat="44.13008" lon="5.00496">
        <ele>151</ele>
        <time>2022-01-29T08:23:55Z</time>
      </trkpt>
      <trkpt lat="44.13003" lon="5.00503">
        <ele>152</ele>
        <time>2022-01-29T08:24:04Z</time>
      </trkpt>
      <trkpt lat="44.12996" lon="5.00507">
        <ele>155</ele>
        <time>2022-01-29T08:24:14Z</time>
      </trkpt>
      <trkpt lat="44.12989" lon="5.00511">
        <ele>157</ele>
        <time>2022-01-29T08:24:21Z</time>
      </trkpt>
      <trkpt lat="44.12976" lon="5.00523">
        <ele>161</ele>
        <time>2022-01-29T08:24:32Z</time>
      </trkpt>
      <trkpt lat="44.12963" lon="5.00533">
        <ele>165</ele>
        <time>2022-01-29T08:24:44Z</time>
      </trkpt>
      <trkpt lat="44.12956" lon="5.00534">
        <ele>168</ele>
        <time>2022-01-29T08:24:51Z</time>
      </trkpt>
      <trkpt lat="44.12947" lon="5.00546">
        <ele>170</ele>
        <time>2022-01-29T08:25:02Z</time>
      </trkpt>
      <trkpt lat="44.12938" lon="5.0055">
        <ele>172</ele>
        <time>2022-01-29T08:25:11Z</time>
      </trkpt>
      <trkpt lat="44.12924" lon="5.00558">
        <ele>175</ele>
        <time>2022-01-29T08:25:25Z</time>
      </trkpt>
      <trkpt lat="44.12919" lon="5.00563">
        <ele>177</ele>
        <time>2022-01-29T08:25:32Z</time>
      </trkpt>
      <trkpt lat="44.12914" lon="5.00571">
        <ele>177</ele>
        <time>2022-01-29T08:25:41Z</time>
      </trkpt>
      <trkpt lat="44.12906" lon="5.00585">
        <ele>177</ele>
        <time>2022-01-29T08:25:52Z</time>
      </trkpt>
      <trkpt lat="44.12901" lon="5.00592">
        <ele>178</ele>
        <time>2022-01-29T08:25:57Z</time>
      </trkpt>
      <trkpt lat="44.12893" lon="5.00602">
        <ele>181</ele>
        <time>2022-01-29T08:26:04Z</time>
      </trkpt>
      <trkpt lat="44.12885" lon="5.00616">
        <ele>183</ele>
        <time>2022-01-29T08:26:14Z</time>
      </trkpt>
      <trkpt lat="44.12878" lon="5.00628">
        <ele>184</ele>
        <time>2022-01-29T08:26:25Z</time>
      </trkpt>
      <trkpt lat="44.12877" lon="5.00642">
        <ele>183</ele>
        <time>2022-01-29T08:26:37Z</time>
      </trkpt>
      <trkpt lat="44.12871" lon="5.00663">
        <ele>184</ele>
        <time>2022-01-29T08:26:48Z</time>
      </trkpt>
      <trkpt lat="44.1287" lon="5.00669">
        <ele>184</ele>
        <time>2022-01-29T08:26:57Z</time>
      </trkpt>
      <trkpt lat="44.12869" lon="5.00673">
        <ele>184</ele>
        <time>2022-01-29T08:27:05Z</time>
      </trkpt>
      <trkpt lat="44.12864" lon="5.00675">
        <ele>188</ele>
        <time>2022-01-29T08:27:14Z</time>
      </trkpt>
      <trkpt lat="44.12857" lon="5.00675">
        <ele>191</ele>
        <time>2022-01-29T08:27:24Z</time>
      </trkpt>
      <trkpt lat="44.12852" lon="5.00677">
        <ele>192</ele>
        <time>2022-01-29T08:27:31Z</time>
      </trkpt>
      <trkpt lat="44.12847" lon="5.00677">
        <ele>194</ele>
        <time>2022-01-29T08:27:41Z</time>
      </trkpt>
      <trkpt lat="44.12843" lon="5.0068">
        <ele>195</ele>
        <time>2022-01-29T08:27:50Z</time>
      </trkpt>
      <trkpt lat="44.12842" lon="5.00685">
        <ele>195</ele>
        <time>2022-01-29T08:27:56Z</time>
      </trkpt>
      <trkpt lat="44.12838" lon="5.00698">
        <ele>197</ele>
        <time>2022-01-29T08:28:07Z</time>
      </trkpt>
      <trkpt lat="44.12837" lon="5.00699">
        <ele>197</ele>
        <time>2022-01-29T08:28:08Z</time>
      </trkpt>
      <trkpt lat="44.1283" lon="5.00703">
        <ele>198</ele>
        <time>2022-01-29T08:28:17Z</time>
      </trkpt>
      <trkpt lat="44.12823" lon="5.00713">
        <ele>199</ele>
        <time>2022-01-29T08:28:28Z</time>
      </trkpt>
      <trkpt lat="44.12822" lon="5.00724">
        <ele>199</ele>
        <time>2022-01-29T08:28:40Z</time>
      </trkpt>
      <trkpt lat="44.12821" lon="5.00724">
        <ele>199</ele>
        <time>2022-01-29T08:28:41Z</time>
      </trkpt>
      <trkpt lat="44.1282" lon="5.00731">
        <ele>199</ele>
        <time>2022-01-29T08:28:53Z</time>
      </trkpt>
      <trkpt lat="44.12823" lon="5.00737">
        <ele>199</ele>
        <time>2022-01-29T08:29:07Z</time>
      </trkpt>
      <trkpt lat="44.12827" lon="5.00736">
        <ele>198</ele>
        <time>2022-01-29T08:29:19Z</time>
      </trkpt>
      <trkpt lat="44.1283" lon="5.00734">
        <ele>197</ele>
        <time>2022-01-29T08:29:31Z</time>
      </trkpt>
      <trkpt lat="44.12837" lon="5.00743">
        <ele>193</ele>
        <time>2022-01-29T08:29:43Z</time>
      </trkpt>
      <trkpt lat="44.1284" lon="5.0075">
        <ele>190</ele>
        <time>2022-01-29T08:29:54Z</time>
      </trkpt>
      <trkpt lat="44.12842" lon="5.00753">
        <ele>188</ele>
        <time>2022-01-29T08:30:04Z</time>
      </trkpt>
      <trkpt lat="44.12845" lon="5.00756">
        <ele>185</ele>
        <time>2022-01-29T08:30:15Z</time>
      </trkpt>
      <trkpt lat="44.1285" lon="5.00761">
        <ele>181</ele>
        <time>2022-01-29T08:30:26Z</time>
      </trkpt>
      <trkpt lat="44.12857" lon="5.00769">
        <ele>175</ele>
        <time>2022-01-29T08:30:39Z</time>
      </trkpt>
      <trkpt lat="44.12859" lon="5.00778">
        <ele>171</ele>
        <time>2022-01-29T08:30:50Z</time>
      </trkpt>
      <trkpt lat="44.12862" lon="5.00781">
        <ele>168</ele>
        <time>2022-01-29T08:31:03Z</time>
      </trkpt>
      <trkpt lat="44.12866" lon="5.00785">
        <ele>164</ele>
        <time>2022-01-29T08:31:14Z</time>
      </trkpt>
      <trkpt lat="44.12868" lon="5.00793">
        <ele>160</ele>
        <time>2022-01-29T08:31:26Z</time>
      </trkpt>
      <trkpt lat="44.12872" lon="5.00796">
        <ele>156</ele>
        <time>2022-01-29T08:31:38Z</time>
      </trkpt>
      <trkpt lat="44.12876" lon="5.00801">
        <ele>153</ele>
        <time>2022-01-29T08:31:48Z</time>
      </trkpt>
      <trkpt lat="44.12883" lon="5.00807">
        <ele>147</ele>
        <time>2022-01-29T08:32:01Z</time>
      </trkpt>
      <trkpt lat="44.12886" lon="5.00814">
        <ele>145</ele>
        <time>2022-01-29T08:32:12Z</time>
      </trkpt>
      <trkpt lat="44.1289" lon="5.00815">
        <ele>143</ele>
        <time>2022-01-29T08:32:25Z</time>
      </trkpt>
      <trkpt lat="44.12894" lon="5.00814">
        <ele>143</ele>
        <time>2022-01-29T08:32:38Z</time>
      </trkpt>
      <trkpt lat="44.129" lon="5.00811">
        <ele>143</ele>
        <time>2022-01-29T08:32:51Z</time>
      </trkpt>
      <trkpt lat="44.12908" lon="5.00813">
        <ele>142</ele>
        <time>2022-01-29T08:32:56Z</time>
      </trkpt>
      <trkpt lat="44.12909" lon="5.00816">
        <ele>142</ele>
        <time>2022-01-29T08:32:59Z</time>
      </trkpt>
      <trkpt lat="44.129" lon="5.00846">
        <ele>143</ele>
        <time>2022-01-29T08:33:15Z</time>
      </trkpt>
      <trkpt lat="44.12895" lon="5.00869">
        <ele>142</ele>
        <time>2022-01-29T08:33:26Z</time>
      </trkpt>
      <trkpt lat="44.12887" lon="5.00887">
        <ele>141</ele>
        <time>2022-01-29T08:33:36Z</time>
      </trkpt>
      <trkpt lat="44.12878" lon="5.00903">
        <ele>143</ele>
        <time>2022-01-29T08:33:48Z</time>
      </trkpt>
      <trkpt lat="44.12879" lon="5.00912">
        <ele>142</ele>
        <time>2022-01-29T08:33:51Z</time>
      </trkpt>
      <trkpt lat="44.12885" lon="5.00931">
        <ele>141</ele>
        <time>2022-01-29T08:34:01Z</time>
      </trkpt>
      <trkpt lat="44.12896" lon="5.00937">
        <ele>141</ele>
        <time>2022-01-29T08:34:13Z</time>
      </trkpt>
      <trkpt lat="44.12901" lon="5.00945">
        <ele>140</ele>
        <time>2022-01-29T08:34:19Z</time>
      </trkpt>
      <trkpt lat="44.12911" lon="5.00947">
        <ele>141</ele>
        <time>2022-01-29T08:34:26Z</time>
      </trkpt>
      <trkpt lat="44.12928" lon="5.00953">
        <ele>141</ele>
        <time>2022-01-29T08:34:42Z</time>
      </trkpt>
      <trkpt lat="44.12945" lon="5.00951">
        <ele>142</ele>
        <time>2022-01-29T08:34:55Z</time>
      </trkpt>
      <trkpt lat="44.1296" lon="5.00954">
        <ele>143</ele>
        <time>2022-01-29T08:35:05Z</time>
      </trkpt>
      <trkpt lat="44.12984" lon="5.00972">
        <ele>141</ele>
        <time>2022-01-29T08:35:20Z</time>
      </trkpt>
      <trkpt lat="44.12991" lon="5.00976">
        <ele>141</ele>
        <time>2022-01-29T08:35:25Z</time>
      </trkpt>
      <trkpt lat="44.12997" lon="5.00976">
        <ele>142</ele>
        <time>2022-01-29T08:35:29Z</time>
      </trkpt>
      <trkpt lat="44.13009" lon="5.00981">
        <ele>143</ele>
        <time>2022-01-29T08:35:35Z</time>
      </trkpt>
      <trkpt lat="44.13025" lon="5.00992">
        <ele>144</ele>
        <time>2022-01-29T08:35:46Z</time>
      </trkpt>
      <trkpt lat="44.13038" lon="5.00987">
        <ele>147</ele>
        <time>2022-01-29T08:35:57Z</time>
      </trkpt>
      <trkpt lat="44.13051" lon="5.00982">
        <ele>150</ele>
        <time>2022-01-29T08:36:08Z</time>
      </trkpt>
      <trkpt lat="44.13053" lon="5.00982">
        <ele>150</ele>
        <time>2022-01-29T08:36:09Z</time>
      </trkpt>
      <trkpt lat="44.13056" lon="5.00984">
        <ele>150</ele>
        <time>2022-01-29T08:36:12Z</time>
      </trkpt>
      <trkpt lat="44.13062" lon="5.00986">
        <ele>150</ele>
        <time>2022-01-29T08:36:16Z</time>
      </trkpt>
      <trkpt lat="44.13068" lon="5.00991">
        <ele>150</ele>
        <time>2022-01-29T08:36:21Z</time>
      </trkpt>
      <trkpt lat="44.13078" lon="5.01005">
        <ele>149</ele>
        <time>2022-01-29T08:36:30Z</time>
      </trkpt>
      <trkpt lat="44.13084" lon="5.01019">
        <ele>148</ele>
        <time>2022-01-29T08:36:40Z</time>
      </trkpt>
      <trkpt lat="44.13087" lon="5.0103">
        <ele>148</ele>
        <time>2022-01-29T08:36:44Z</time>
      </trkpt>
      <trkpt lat="44.13099" lon="5.01048">
        <ele>148</ele>
        <time>2022-01-29T08:36:55Z</time>
      </trkpt>
      <trkpt lat="44.131" lon="5.01049">
        <ele>148</ele>
        <time>2022-01-29T08:36:57Z</time>
      </trkpt>
      <trkpt lat="44.13104" lon="5.01055">
        <ele>148</ele>
        <time>2022-01-29T08:37:03Z</time>
      </trkpt>
      <trkpt lat="44.13112" lon="5.01056">
        <ele>149</ele>
        <time>2022-01-29T08:37:09Z</time>
      </trkpt>
      <trkpt lat="44.13113" lon="5.01059">
        <ele>149</ele>
        <time>2022-01-29T08:37:11Z</time>
      </trkpt>
      <trkpt lat="44.13115" lon="5.01068">
        <ele>149</ele>
        <time>2022-01-29T08:37:16Z</time>
      </trkpt>
      <trkpt lat="44.13122" lon="5.01084">
        <ele>149</ele>
        <time>2022-01-29T08:37:23Z</time>
      </trkpt>
      <trkpt lat="44.13128" lon="5.01091">
        <ele>149</ele>
        <time>2022-01-29T08:37:28Z</time>
      </trkpt>
      <trkpt lat="44.13135" lon="5.01093">
        <ele>150</ele>
        <time>2022-01-29T08:37:33Z</time>
      </trkpt>
      <trkpt lat="44.13144" lon="5.01096">
        <ele>151</ele>
        <time>2022-01-29T08:37:40Z</time>
      </trkpt>
      <trkpt lat="44.13154" lon="5.01098">
        <ele>153</ele>
        <time>2022-01-29T08:37:48Z</time>
      </trkpt>
      <trkpt lat="44.13172" lon="5.01111">
        <ele>154</ele>
        <time>2022-01-29T08:38:02Z</time>
      </trkpt>
      <trkpt lat="44.13181" lon="5.01122">
        <ele>158</ele>
        <time>2022-01-29T08:38:09Z</time>
      </trkpt>
      <trkpt lat="44.13195" lon="5.01149">
        <ele>157</ele>
        <time>2022-01-29T08:38:22Z</time>
      </trkpt>
      <trkpt lat="44.13202" lon="5.01169">
        <ele>158</ele>
        <time>2022-01-29T08:38:34Z</time>
      </trkpt>
      <trkpt lat="44.13202" lon="5.01175">
        <ele>159</ele>
        <time>2022-01-29T08:38:38Z</time>
      </trkpt>
      <trkpt lat="44.13202" lon="5.01186">
        <ele>159</ele>
        <time>2022-01-29T08:38:43Z</time>
      </trkpt>
      <trkpt lat="44.13199" lon="5.01195">
        <ele>159</ele>
        <time>2022-01-29T08:38:48Z</time>
      </trkpt>
      <trkpt lat="44.13201" lon="5.0121">
        <ele>159</ele>
        <time>2022-01-29T08:38:53Z</time>
      </trkpt>
      <trkpt lat="44.13197" lon="5.01222">
        <ele>158</ele>
        <time>2022-01-29T08:38:57Z</time>
      </trkpt>
      <trkpt lat="44.13195" lon="5.01226">
        <ele>157</ele>
        <time>2022-01-29T08:38:59Z</time>
      </trkpt>
      <trkpt lat="44.13194" lon="5.01243">
        <ele>157</ele>
        <time>2022-01-29T08:39:05Z</time>
      </trkpt>
      <trkpt lat="44.13194" lon="5.01278">
        <ele>158</ele>
        <time>2022-01-29T08:39:19Z</time>
      </trkpt>
      <trkpt lat="44.13193" lon="5.0131">
        <ele>160</ele>
        <time>2022-01-29T08:39:29Z</time>
      </trkpt>
      <trkpt lat="44.13194" lon="5.01337">
        <ele>160</ele>
        <time>2022-01-29T08:39:39Z</time>
      </trkpt>
      <trkpt lat="44.13194" lon="5.01366">
        <ele>160</ele>
        <time>2022-01-29T08:39:52Z</time>
      </trkpt>
      <trkpt lat="44.13194" lon="5.01394">
        <ele>161</ele>
        <time>2022-01-29T08:40:04Z</time>
      </trkpt>
      <trkpt lat="44.13196" lon="5.01401">
        <ele>163</ele>
        <time>2022-01-29T08:40:08Z</time>
      </trkpt>
      <trkpt lat="44.132" lon="5.01407">
        <ele>163</ele>
        <time>2022-01-29T08:40:12Z</time>
      </trkpt>
      <trkpt lat="44.1322" lon="5.0142">
        <ele>161</ele>
        <time>2022-01-29T08:40:26Z</time>
      </trkpt>
      <trkpt lat="44.13224" lon="5.0142">
        <ele>160</ele>
        <time>2022-01-29T08:40:29Z</time>
      </trkpt>
      <trkpt lat="44.13223" lon="5.01426">
        <ele>160</ele>
        <time>2022-01-29T08:40:49Z</time>
      </trkpt>
      <trkpt lat="44.1322" lon="5.0144">
        <ele>161</ele>
        <time>2022-01-29T08:40:58Z</time>
      </trkpt>
      <trkpt lat="44.13219" lon="5.01442">
        <ele>161</ele>
        <time>2022-01-29T08:40:59Z</time>
      </trkpt>
      <trkpt lat="44.13219" lon="5.0146">
        <ele>162</ele>
        <time>2022-01-29T08:41:09Z</time>
      </trkpt>
      <trkpt lat="44.13222" lon="5.01473">
        <ele>161</ele>
        <time>2022-01-29T08:41:16Z</time>
      </trkpt>
      <trkpt lat="44.13224" lon="5.01479">
        <ele>162</ele>
        <time>2022-01-29T08:41:20Z</time>
      </trkpt>
      <trkpt lat="44.13222" lon="5.01484">
        <ele>162</ele>
        <time>2022-01-29T08:41:22Z</time>
      </trkpt>
      <trkpt lat="44.13217" lon="5.015">
        <ele>165</ele>
        <time>2022-01-29T08:41:34Z</time>
      </trkpt>
      <trkpt lat="44.13217" lon="5.01506">
        <ele>166</ele>
        <time>2022-01-29T08:41:38Z</time>
      </trkpt>
      <trkpt lat="44.13218" lon="5.0152">
        <ele>167</ele>
        <time>2022-01-29T08:41:47Z</time>
      </trkpt>
      <trkpt lat="44.13223" lon="5.01524">
        <ele>168</ele>
        <time>2022-01-29T08:41:51Z</time>
      </trkpt>
      <trkpt lat="44.13226" lon="5.01526">
        <ele>169</ele>
        <time>2022-01-29T08:41:53Z</time>
      </trkpt>
      <trkpt lat="44.13234" lon="5.01533">
        <ele>174</ele>
        <time>2022-01-29T08:42:02Z</time>
      </trkpt>
      <trkpt lat="44.13237" lon="5.01544">
        <ele>177</ele>
        <time>2022-01-29T08:42:12Z</time>
      </trkpt>
      <trkpt lat="44.1324" lon="5.01555">
        <ele>180</ele>
        <time>2022-01-29T08:42:22Z</time>
      </trkpt>
      <trkpt lat="44.13249" lon="5.0156">
        <ele>183</ele>
        <time>2022-01-29T08:42:34Z</time>
      </trkpt>
      <trkpt lat="44.1326" lon="5.0155">
        <ele>185</ele>
        <time>2022-01-29T08:42:45Z</time>
      </trkpt>
      <trkpt lat="44.13266" lon="5.01543">
        <ele>186</ele>
        <time>2022-01-29T08:42:54Z</time>
      </trkpt>
      <trkpt lat="44.13272" lon="5.0153">
        <ele>188</ele>
        <time>2022-01-29T08:43:04Z</time>
      </trkpt>
      <trkpt lat="44.13274" lon="5.01528">
        <ele>188</ele>
        <time>2022-01-29T08:43:06Z</time>
      </trkpt>
      <trkpt lat="44.13284" lon="5.01521">
        <ele>189</ele>
        <time>2022-01-29T08:43:16Z</time>
      </trkpt>
      <trkpt lat="44.1329" lon="5.01528">
        <ele>189</ele>
        <time>2022-01-29T08:43:24Z</time>
      </trkpt>
      <trkpt lat="44.13293" lon="5.0153">
        <ele>189</ele>
        <time>2022-01-29T08:43:27Z</time>
      </trkpt>
      <trkpt lat="44.133" lon="5.01536">
        <ele>189</ele>
        <time>2022-01-29T08:43:32Z</time>
      </trkpt>
      <trkpt lat="44.13303" lon="5.01549">
        <ele>190</ele>
        <time>2022-01-29T08:43:38Z</time>
      </trkpt>
      <trkpt lat="44.13311" lon="5.01575">
        <ele>192</ele>
        <time>2022-01-29T08:43:51Z</time>
      </trkpt>
      <trkpt lat="44.13319" lon="5.01587">
        <ele>192</ele>
        <time>2022-01-29T08:44:01Z</time>
      </trkpt>
      <trkpt lat="44.13323" lon="5.01592">
        <ele>192</ele>
        <time>2022-01-29T08:44:05Z</time>
      </trkpt>
      <trkpt lat="44.13328" lon="5.01604">
        <ele>191</ele>
        <time>2022-01-29T08:44:16Z</time>
      </trkpt>
      <trkpt lat="44.13327" lon="5.01608">
        <ele>192</ele>
        <time>2022-01-29T08:44:19Z</time>
      </trkpt>
      <trkpt lat="44.13327" lon="5.01616">
        <ele>193</ele>
        <time>2022-01-29T08:44:27Z</time>
      </trkpt>
      <trkpt lat="44.13327" lon="5.01622">
        <ele>194</ele>
        <time>2022-01-29T08:44:32Z</time>
      </trkpt>
      <trkpt lat="44.13327" lon="5.01627">
        <ele>194</ele>
        <time>2022-01-29T08:44:36Z</time>
      </trkpt>
      <trkpt lat="44.13327" lon="5.01629">
        <ele>194</ele>
        <time>2022-01-29T08:44:37Z</time>
      </trkpt>
      <trkpt lat="44.13328" lon="5.01649">
        <ele>197</ele>
        <time>2022-01-29T08:44:46Z</time>
      </trkpt>
      <trkpt lat="44.13331" lon="5.01655">
        <ele>199</ele>
        <time>2022-01-29T08:44:53Z</time>
      </trkpt>
      <trkpt lat="44.13338" lon="5.01664">
        <ele>201</ele>
        <time>2022-01-29T08:45:04Z</time>
      </trkpt>
      <trkpt lat="44.13342" lon="5.01662">
        <ele>201</ele>
        <time>2022-01-29T08:45:07Z</time>
      </trkpt>
      <trkpt lat="44.13351" lon="5.01655">
        <ele>200</ele>
        <time>2022-01-29T08:45:16Z</time>
      </trkpt>
      <trkpt lat="44.1336" lon="5.01655">
        <ele>201</ele>
        <time>2022-01-29T08:45:23Z</time>
      </trkpt>
      <trkpt lat="44.13369" lon="5.0165">
        <ele>201</ele>
        <time>2022-01-29T08:45:32Z</time>
      </trkpt>
      <trkpt lat="44.13374" lon="5.01646">
        <ele>200</ele>
        <time>2022-01-29T08:45:36Z</time>
      </trkpt>
      <trkpt lat="44.13377" lon="5.01645">
        <ele>200</ele>
        <time>2022-01-29T08:45:38Z</time>
      </trkpt>
      <trkpt lat="44.13385" lon="5.01646">
        <ele>202</ele>
        <time>2022-01-29T08:45:47Z</time>
      </trkpt>
      <trkpt lat="44.13385" lon="5.01646">
        <ele>202</ele>
        <time>2022-01-29T08:45:48Z</time>
      </trkpt>
      <trkpt lat="44.13388" lon="5.0165">
        <ele>204</ele>
        <time>2022-01-29T08:45:53Z</time>
      </trkpt>
      <trkpt lat="44.13395" lon="5.01657">
        <ele>205</ele>
        <time>2022-01-29T08:46:04Z</time>
      </trkpt>
      <trkpt lat="44.13401" lon="5.01666">
        <ele>206</ele>
        <time>2022-01-29T08:46:15Z</time>
      </trkpt>
      <trkpt lat="44.13404" lon="5.01675">
        <ele>207</ele>
        <time>2022-01-29T08:46:25Z</time>
      </trkpt>
      <trkpt lat="44.13405" lon="5.01685">
        <ele>208</ele>
        <time>2022-01-29T08:46:35Z</time>
      </trkpt>
      <trkpt lat="44.13405" lon="5.01698">
        <ele>210</ele>
        <time>2022-01-29T08:46:47Z</time>
      </trkpt>
      <trkpt lat="44.13411" lon="5.01706">
        <ele>209</ele>
        <time>2022-01-29T08:46:59Z</time>
      </trkpt>
      <trkpt lat="44.13414" lon="5.01712">
        <ele>209</ele>
        <time>2022-01-29T08:47:05Z</time>
      </trkpt>
      <trkpt lat="44.13416" lon="5.0172">
        <ele>209</ele>
        <time>2022-01-29T08:47:09Z</time>
      </trkpt>
      <trkpt lat="44.13414" lon="5.01736">
        <ele>211</ele>
        <time>2022-01-29T08:47:20Z</time>
      </trkpt>
      <trkpt lat="44.13413" lon="5.01741">
        <ele>212</ele>
        <time>2022-01-29T08:47:23Z</time>
      </trkpt>
      <trkpt lat="44.1341" lon="5.01757">
        <ele>215</ele>
        <time>2022-01-29T08:47:29Z</time>
      </trkpt>
      <trkpt lat="44.1341" lon="5.01767">
        <ele>215</ele>
        <time>2022-01-29T08:47:33Z</time>
      </trkpt>
      <trkpt lat="44.1341" lon="5.01783">
        <ele>216</ele>
        <time>2022-01-29T08:47:40Z</time>
      </trkpt>
      <trkpt lat="44.13407" lon="5.01802">
        <ele>219</ele>
        <time>2022-01-29T08:47:50Z</time>
      </trkpt>
      <trkpt lat="44.13408" lon="5.01822">
        <ele>220</ele>
        <time>2022-01-29T08:48:02Z</time>
      </trkpt>
      <trkpt lat="44.13408" lon="5.01829">
        <ele>221</ele>
        <time>2022-01-29T08:48:05Z</time>
      </trkpt>
      <trkpt lat="44.13417" lon="5.01858">
        <ele>222</ele>
        <time>2022-01-29T08:48:18Z</time>
      </trkpt>
      <trkpt lat="44.13425" lon="5.01879">
        <ele>226</ele>
        <time>2022-01-29T08:48:29Z</time>
      </trkpt>
      <trkpt lat="44.13428" lon="5.01887">
        <ele>228</ele>
        <time>2022-01-29T08:48:35Z</time>
      </trkpt>
      <trkpt lat="44.13435" lon="5.01895">
        <ele>230</ele>
        <time>2022-01-29T08:48:45Z</time>
      </trkpt>
      <trkpt lat="44.13442" lon="5.01889">
        <ele>228</ele>
        <time>2022-01-29T08:48:54Z</time>
      </trkpt>
      <trkpt lat="44.13444" lon="5.01888">
        <ele>228</ele>
        <time>2022-01-29T08:48:55Z</time>
      </trkpt>
      <trkpt lat="44.13447" lon="5.01886">
        <ele>228</ele>
        <time>2022-01-29T08:48:57Z</time>
      </trkpt>
      <trkpt lat="44.13454" lon="5.01881">
        <ele>229</ele>
        <time>2022-01-29T08:49:03Z</time>
      </trkpt>
      <trkpt lat="44.13455" lon="5.0188">
        <ele>229</ele>
        <time>2022-01-29T08:49:04Z</time>
      </trkpt>
      <trkpt lat="44.13459" lon="5.01879">
        <ele>229</ele>
        <time>2022-01-29T08:49:07Z</time>
      </trkpt>
      <trkpt lat="44.13463" lon="5.01877">
        <ele>230</ele>
        <time>2022-01-29T08:49:10Z</time>
      </trkpt>
      <trkpt lat="44.13465" lon="5.01877">
        <ele>231</ele>
        <time>2022-01-29T08:49:11Z</time>
      </trkpt>
      <trkpt lat="44.13466" lon="5.01877">
        <ele>231</ele>
        <time>2022-01-29T08:49:12Z</time>
      </trkpt>
      <trkpt lat="44.13482" lon="5.0187">
        <ele>231</ele>
        <time>2022-01-29T08:49:23Z</time>
      </trkpt>
      <trkpt lat="44.13502" lon="5.01866">
        <ele>233</ele>
        <time>2022-01-29T08:49:34Z</time>
      </trkpt>
      <trkpt lat="44.13512" lon="5.0187">
        <ele>231</ele>
        <time>2022-01-29T08:49:42Z</time>
      </trkpt>
      <trkpt lat="44.13518" lon="5.01873">
        <ele>229</ele>
        <time>2022-01-29T08:49:47Z</time>
      </trkpt>
      <trkpt lat="44.13522" lon="5.01875">
        <ele>228</ele>
        <time>2022-01-29T08:49:50Z</time>
      </trkpt>
      <trkpt lat="44.13524" lon="5.01886">
        <ele>228</ele>
        <time>2022-01-29T08:49:58Z</time>
      </trkpt>
      <trkpt lat="44.13525" lon="5.01887">
        <ele>228</ele>
        <time>2022-01-29T08:49:59Z</time>
      </trkpt>
      <trkpt lat="44.13526" lon="5.01895">
        <ele>228</ele>
        <time>2022-01-29T08:50:03Z</time>
      </trkpt>
      <trkpt lat="44.13528" lon="5.01918">
        <ele>229</ele>
        <time>2022-01-29T08:50:13Z</time>
      </trkpt>
      <trkpt lat="44.13525" lon="5.01935">
        <ele>231</ele>
        <time>2022-01-29T08:50:22Z</time>
      </trkpt>
      <trkpt lat="44.13524" lon="5.01937">
        <ele>231</ele>
        <time>2022-01-29T08:50:23Z</time>
      </trkpt>
      <trkpt lat="44.13522" lon="5.01948">
        <ele>232</ele>
        <time>2022-01-29T08:50:27Z</time>
      </trkpt>
      <trkpt lat="44.13522" lon="5.0195">
        <ele>233</ele>
        <time>2022-01-29T08:50:28Z</time>
      </trkpt>
      <trkpt lat="44.13521" lon="5.01952">
        <ele>233</ele>
        <time>2022-01-29T08:50:29Z</time>
      </trkpt>
      <trkpt lat="44.13527" lon="5.01975">
        <ele>235</ele>
        <time>2022-01-29T08:50:40Z</time>
      </trkpt>
      <trkpt lat="44.13534" lon="5.01988">
        <ele>239</ele>
        <time>2022-01-29T08:50:50Z</time>
      </trkpt>
      <trkpt lat="44.13536" lon="5.01989">
        <ele>239</ele>
        <time>2022-01-29T08:50:51Z</time>
      </trkpt>
      <trkpt lat="44.13552" lon="5.02002">
        <ele>246</ele>
        <time>2022-01-29T08:51:03Z</time>
      </trkpt>
      <trkpt lat="44.13567" lon="5.02014">
        <ele>249</ele>
        <time>2022-01-29T08:51:14Z</time>
      </trkpt>
      <trkpt lat="44.1358" lon="5.02026">
        <ele>250</ele>
        <time>2022-01-29T08:51:23Z</time>
      </trkpt>
      <trkpt lat="44.13592" lon="5.02033">
        <ele>251</ele>
        <time>2022-01-29T08:51:31Z</time>
      </trkpt>
      <trkpt lat="44.136" lon="5.02035">
        <ele>252</ele>
        <time>2022-01-29T08:51:36Z</time>
      </trkpt>
      <trkpt lat="44.13606" lon="5.02041">
        <ele>252</ele>
        <time>2022-01-29T08:51:41Z</time>
      </trkpt>
      <trkpt lat="44.13611" lon="5.02047">
        <ele>252</ele>
        <time>2022-01-29T08:51:46Z</time>
      </trkpt>
      <trkpt lat="44.13619" lon="5.02064">
        <ele>255</ele>
        <time>2022-01-29T08:51:55Z</time>
      </trkpt>
      <trkpt lat="44.13636" lon="5.02075">
        <ele>258</ele>
        <time>2022-01-29T08:52:07Z</time>
      </trkpt>
      <trkpt lat="44.13641" lon="5.02069">
        <ele>258</ele>
        <time>2022-01-29T08:55:54Z</time>
      </trkpt>
      <trkpt lat="44.13638" lon="5.0206">
        <ele>256</ele>
        <time>2022-01-29T08:55:59Z</time>
      </trkpt>
      <trkpt lat="44.13628" lon="5.02053">
        <ele>254</ele>
        <time>2022-01-29T08:56:08Z</time>
      </trkpt>
      <trkpt lat="44.13625" lon="5.02044">
        <ele>254</ele>
        <time>2022-01-29T08:56:15Z</time>
      </trkpt>
      <trkpt lat="44.13635" lon="5.02038">
        <ele>256</ele>
        <time>2022-01-29T08:56:27Z</time>
      </trkpt>
      <trkpt lat="44.13641" lon="5.0203">
        <ele>257</ele>
        <time>2022-01-29T08:56:37Z</time>
      </trkpt>
      <trkpt lat="44.13642" lon="5.0202">
        <ele>259</ele>
        <time>2022-01-29T08:56:47Z</time>
      </trkpt>
      <trkpt lat="44.1365" lon="5.02017">
        <ele>260</ele>
        <time>2022-01-29T08:56:58Z</time>
      </trkpt>
      <trkpt lat="44.13652" lon="5.0201">
        <ele>262</ele>
        <time>2022-01-29T08:57:10Z</time>
      </trkpt>
      <trkpt lat="44.13647" lon="5.02001">
        <ele>263</ele>
        <time>2022-01-29T08:57:18Z</time>
      </trkpt>
      <trkpt lat="44.13645" lon="5.01994">
        <ele>265</ele>
        <time>2022-01-29T08:57:24Z</time>
      </trkpt>
      <trkpt lat="44.13653" lon="5.01985">
        <ele>267</ele>
        <time>2022-01-29T08:57:35Z</time>
      </trkpt>
      <trkpt lat="44.1366" lon="5.01977">
        <ele>270</ele>
        <time>2022-01-29T08:57:46Z</time>
      </trkpt>
      <trkpt lat="44.13662" lon="5.01976">
        <ele>270</ele>
        <time>2022-01-29T08:57:48Z</time>
      </trkpt>
      <trkpt lat="44.1367" lon="5.01968">
        <ele>273</ele>
        <time>2022-01-29T08:57:55Z</time>
      </trkpt>
      <trkpt lat="44.13675" lon="5.01965">
        <ele>274</ele>
        <time>2022-01-29T08:57:59Z</time>
      </trkpt>
      <trkpt lat="44.13682" lon="5.01952">
        <ele>278</ele>
        <time>2022-01-29T08:58:12Z</time>
      </trkpt>
      <trkpt lat="44.13687" lon="5.01943">
        <ele>280</ele>
        <time>2022-01-29T08:58:23Z</time>
      </trkpt>
      <trkpt lat="44.1369" lon="5.0194">
        <ele>281</ele>
        <time>2022-01-29T08:58:27Z</time>
      </trkpt>
      <trkpt lat="44.13694" lon="5.01924">
        <ele>283</ele>
        <time>2022-01-29T08:58:38Z</time>
      </trkpt>
      <trkpt lat="44.13698" lon="5.01922">
        <ele>284</ele>
        <time>2022-01-29T08:58:47Z</time>
      </trkpt>
      <trkpt lat="44.13699" lon="5.01916">
        <ele>285</ele>
        <time>2022-01-29T08:58:57Z</time>
      </trkpt>
      <trkpt lat="44.13699" lon="5.01915">
        <ele>285</ele>
        <time>2022-01-29T08:58:58Z</time>
      </trkpt>
      <trkpt lat="44.137" lon="5.01911">
        <ele>285</ele>
        <time>2022-01-29T08:59:00Z</time>
      </trkpt>
      <trkpt lat="44.13698" lon="5.01904">
        <ele>285</ele>
        <time>2022-01-29T08:59:05Z</time>
      </trkpt>
      <trkpt lat="44.13696" lon="5.01886">
        <ele>284</ele>
        <time>2022-01-29T08:59:15Z</time>
      </trkpt>
      <trkpt lat="44.13696" lon="5.01882">
        <ele>284</ele>
        <time>2022-01-29T08:59:17Z</time>
      </trkpt>
      <trkpt lat="44.13697" lon="5.0188">
        <ele>284</ele>
        <time>2022-01-29T08:59:18Z</time>
      </trkpt>
      <trkpt lat="44.13698" lon="5.01879">
        <ele>284</ele>
        <time>2022-01-29T08:59:19Z</time>
      </trkpt>
      <trkpt lat="44.137" lon="5.01878">
        <ele>284</ele>
        <time>2022-01-29T08:59:20Z</time>
      </trkpt>
      <trkpt lat="44.13701" lon="5.01877">
        <ele>285</ele>
        <time>2022-01-29T08:59:21Z</time>
      </trkpt>
      <trkpt lat="44.13702" lon="5.01876">
        <ele>285</ele>
        <time>2022-01-29T08:59:22Z</time>
      </trkpt>
      <trkpt lat="44.13703" lon="5.01875">
        <ele>285</ele>
        <time>2022-01-29T08:59:23Z</time>
      </trkpt>
      <trkpt lat="44.13705" lon="5.01874">
        <ele>285</ele>
        <time>2022-01-29T08:59:24Z</time>
      </trkpt>
      <trkpt lat="44.13715" lon="5.01861">
        <ele>286</ele>
        <time>2022-01-29T08:59:33Z</time>
      </trkpt>
      <trkpt lat="44.13718" lon="5.01848">
        <ele>285</ele>
        <time>2022-01-29T08:59:40Z</time>
      </trkpt>
      <trkpt lat="44.13718" lon="5.01834">
        <ele>282</ele>
        <time>2022-01-29T08:59:47Z</time>
      </trkpt>
      <trkpt lat="44.13718" lon="5.01831">
        <ele>281</ele>
        <time>2022-01-29T08:59:48Z</time>
      </trkpt>
      <trkpt lat="44.13718" lon="5.01823">
        <ele>280</ele>
        <time>2022-01-29T08:59:52Z</time>
      </trkpt>
      <trkpt lat="44.13722" lon="5.01799">
        <ele>277</ele>
        <time>2022-01-29T09:00:03Z</time>
      </trkpt>
      <trkpt lat="44.13724" lon="5.01797">
        <ele>277</ele>
        <time>2022-01-29T09:00:04Z</time>
      </trkpt>
      <trkpt lat="44.13743" lon="5.01789">
        <ele>279</ele>
        <time>2022-01-29T09:00:16Z</time>
      </trkpt>
      <trkpt lat="44.13745" lon="5.01789">
        <ele>279</ele>
        <time>2022-01-29T09:00:17Z</time>
      </trkpt>
      <trkpt lat="44.13761" lon="5.01782">
        <ele>279</ele>
        <time>2022-01-29T09:00:28Z</time>
      </trkpt>
      <trkpt lat="44.1377" lon="5.01775">
        <ele>278</ele>
        <time>2022-01-29T09:00:35Z</time>
      </trkpt>
      <trkpt lat="44.13771" lon="5.01775">
        <ele>278</ele>
        <time>2022-01-29T09:00:36Z</time>
      </trkpt>
      <trkpt lat="44.13779" lon="5.0177">
        <ele>277</ele>
        <time>2022-01-29T09:00:41Z</time>
      </trkpt>
      <trkpt lat="44.13793" lon="5.01775">
        <ele>276</ele>
        <time>2022-01-29T09:00:53Z</time>
      </trkpt>
      <trkpt lat="44.13796" lon="5.01776">
        <ele>276</ele>
        <time>2022-01-29T09:00:56Z</time>
      </trkpt>
      <trkpt lat="44.13812" lon="5.01775">
        <ele>274</ele>
        <time>2022-01-29T09:01:08Z</time>
      </trkpt>
      <trkpt lat="44.1383" lon="5.01769">
        <ele>271</ele>
        <time>2022-01-29T09:01:19Z</time>
      </trkpt>
      <trkpt lat="44.13842" lon="5.01761">
        <ele>270</ele>
        <time>2022-01-29T09:01:28Z</time>
      </trkpt>
      <trkpt lat="44.13844" lon="5.01759">
        <ele>270</ele>
        <time>2022-01-29T09:01:30Z</time>
      </trkpt>
      <trkpt lat="44.13846" lon="5.01757">
        <ele>269</ele>
        <time>2022-01-29T09:01:32Z</time>
      </trkpt>
      <trkpt lat="44.13856" lon="5.01745">
        <ele>267</ele>
        <time>2022-01-29T09:01:42Z</time>
      </trkpt>
      <trkpt lat="44.13864" lon="5.01735">
        <ele>263</ele>
        <time>2022-01-29T09:01:51Z</time>
      </trkpt>
      <trkpt lat="44.13864" lon="5.01733">
        <ele>262</ele>
        <time>2022-01-29T09:01:52Z</time>
      </trkpt>
      <trkpt lat="44.13873" lon="5.01724">
        <ele>261</ele>
        <time>2022-01-29T09:01:59Z</time>
      </trkpt>
      <trkpt lat="44.13883" lon="5.01711">
        <ele>259</ele>
        <time>2022-01-29T09:02:10Z</time>
      </trkpt>
      <trkpt lat="44.13884" lon="5.0171">
        <ele>259</ele>
        <time>2022-01-29T09:02:11Z</time>
      </trkpt>
      <trkpt lat="44.1389" lon="5.01699">
        <ele>255</ele>
        <time>2022-01-29T09:02:21Z</time>
      </trkpt>
      <trkpt lat="44.13894" lon="5.01692">
        <ele>253</ele>
        <time>2022-01-29T09:03:07Z</time>
      </trkpt>
      <trkpt lat="44.13899" lon="5.0169">
        <ele>253</ele>
        <time>2022-01-29T09:05:02Z</time>
      </trkpt>
      <trkpt lat="44.13913" lon="5.01681">
        <ele>251</ele>
        <time>2022-01-29T09:05:15Z</time>
      </trkpt>
      <trkpt lat="44.13926" lon="5.01672">
        <ele>248</ele>
        <time>2022-01-29T09:05:26Z</time>
      </trkpt>
      <trkpt lat="44.13928" lon="5.01672">
        <ele>248</ele>
        <time>2022-01-29T09:05:27Z</time>
      </trkpt>
      <trkpt lat="44.13929" lon="5.01672">
        <ele>248</ele>
        <time>2022-01-29T09:05:28Z</time>
      </trkpt>
      <trkpt lat="44.1393" lon="5.01672">
        <ele>248</ele>
        <time>2022-01-29T09:05:29Z</time>
      </trkpt>
      <trkpt lat="44.13932" lon="5.01671">
        <ele>248</ele>
        <time>2022-01-29T09:05:30Z</time>
      </trkpt>
      <trkpt lat="44.13933" lon="5.01671">
        <ele>248</ele>
        <time>2022-01-29T09:05:31Z</time>
      </trkpt>
      <trkpt lat="44.13944" lon="5.01667">
        <ele>247</ele>
        <time>2022-01-29T09:05:39Z</time>
      </trkpt>
      <trkpt lat="44.1395" lon="5.0166">
        <ele>246</ele>
        <time>2022-01-29T09:05:45Z</time>
      </trkpt>
      <trkpt lat="44.13952" lon="5.01657">
        <ele>245</ele>
        <time>2022-01-29T09:05:47Z</time>
      </trkpt>
      <trkpt lat="44.13953" lon="5.01656">
        <ele>245</ele>
        <time>2022-01-29T09:05:48Z</time>
      </trkpt>
      <trkpt lat="44.13955" lon="5.01655">
        <ele>245</ele>
        <time>2022-01-29T09:05:49Z</time>
      </trkpt>
      <trkpt lat="44.13962" lon="5.01641">
        <ele>242</ele>
        <time>2022-01-29T09:05:57Z</time>
      </trkpt>
      <trkpt lat="44.13964" lon="5.01639">
        <ele>241</ele>
        <time>2022-01-29T09:05:59Z</time>
      </trkpt>
      <trkpt lat="44.13965" lon="5.01638">
        <ele>241</ele>
        <time>2022-01-29T09:06:00Z</time>
      </trkpt>
      <trkpt lat="44.13966" lon="5.01638">
        <ele>241</ele>
        <time>2022-01-29T09:06:01Z</time>
      </trkpt>
      <trkpt lat="44.13967" lon="5.01636">
        <ele>241</ele>
        <time>2022-01-29T09:06:02Z</time>
      </trkpt>
      <trkpt lat="44.13969" lon="5.01636">
        <ele>241</ele>
        <time>2022-01-29T09:06:03Z</time>
      </trkpt>
      <trkpt lat="44.13986" lon="5.01627">
        <ele>240</ele>
        <time>2022-01-29T09:06:15Z</time>
      </trkpt>
      <trkpt lat="44.14002" lon="5.01619">
        <ele>239</ele>
        <time>2022-01-29T09:06:27Z</time>
      </trkpt>
      <trkpt lat="44.1402" lon="5.016">
        <ele>235</ele>
        <time>2022-01-29T09:06:39Z</time>
      </trkpt>
      <trkpt lat="44.14034" lon="5.01588">
        <ele>232</ele>
        <time>2022-01-29T09:06:49Z</time>
      </trkpt>
      <trkpt lat="44.14036" lon="5.01588">
        <ele>232</ele>
        <time>2022-01-29T09:06:50Z</time>
      </trkpt>
      <trkpt lat="44.14037" lon="5.01587">
        <ele>232</ele>
        <time>2022-01-29T09:06:51Z</time>
      </trkpt>
      <trkpt lat="44.14039" lon="5.01586">
        <ele>232</ele>
        <time>2022-01-29T09:06:52Z</time>
      </trkpt>
      <trkpt lat="44.1404" lon="5.01586">
        <ele>232</ele>
        <time>2022-01-29T09:06:53Z</time>
      </trkpt>
      <trkpt lat="44.14041" lon="5.01585">
        <ele>232</ele>
        <time>2022-01-29T09:06:54Z</time>
      </trkpt>
      <trkpt lat="44.14043" lon="5.01585">
        <ele>232</ele>
        <time>2022-01-29T09:06:55Z</time>
      </trkpt>
      <trkpt lat="44.14044" lon="5.01584">
        <ele>232</ele>
        <time>2022-01-29T09:06:56Z</time>
      </trkpt>
      <trkpt lat="44.14046" lon="5.01583">
        <ele>232</ele>
        <time>2022-01-29T09:06:57Z</time>
      </trkpt>
      <trkpt lat="44.14048" lon="5.01582">
        <ele>232</ele>
        <time>2022-01-29T09:06:58Z</time>
      </trkpt>
      <trkpt lat="44.14049" lon="5.01581">
        <ele>232</ele>
        <time>2022-01-29T09:06:59Z</time>
      </trkpt>
      <trkpt lat="44.14051" lon="5.0158">
        <ele>232</ele>
        <time>2022-01-29T09:07:00Z</time>
      </trkpt>
      <trkpt lat="44.14071" lon="5.01574">
        <ele>232</ele>
        <time>2022-01-29T09:07:12Z</time>
      </trkpt>
      <trkpt lat="44.14082" lon="5.0156">
        <ele>231</ele>
        <time>2022-01-29T09:07:22Z</time>
      </trkpt>
      <trkpt lat="44.14083" lon="5.01558">
        <ele>231</ele>
        <time>2022-01-29T09:07:23Z</time>
      </trkpt>
      <trkpt lat="44.14085" lon="5.01556">
        <ele>231</ele>
        <time>2022-01-29T09:07:24Z</time>
      </trkpt>
      <trkpt lat="44.14085" lon="5.01552">
        <ele>231</ele>
        <time>2022-01-29T09:07:25Z</time>
      </trkpt>
      <trkpt lat="44.14089" lon="5.01535">
        <ele>233</ele>
        <time>2022-01-29T09:07:31Z</time>
      </trkpt>
      <trkpt lat="44.14098" lon="5.01504">
        <ele>238</ele>
        <time>2022-01-29T09:07:44Z</time>
      </trkpt>
      <trkpt lat="44.14103" lon="5.01493">
        <ele>239</ele>
        <time>2022-01-29T09:07:50Z</time>
      </trkpt>
      <trkpt lat="44.14113" lon="5.01485">
        <ele>240</ele>
        <time>2022-01-29T09:07:56Z</time>
      </trkpt>
      <trkpt lat="44.14128" lon="5.01467">
        <ele>243</ele>
        <time>2022-01-29T09:08:08Z</time>
      </trkpt>
      <trkpt lat="44.14129" lon="5.01463">
        <ele>243</ele>
        <time>2022-01-29T09:08:10Z</time>
      </trkpt>
      <trkpt lat="44.14129" lon="5.01462">
        <ele>243</ele>
        <time>2022-01-29T09:08:11Z</time>
      </trkpt>
      <trkpt lat="44.14128" lon="5.01461">
        <ele>243</ele>
        <time>2022-01-29T09:08:12Z</time>
      </trkpt>
      <trkpt lat="44.14126" lon="5.0146">
        <ele>243</ele>
        <time>2022-01-29T09:08:13Z</time>
      </trkpt>
      <trkpt lat="44.14125" lon="5.01459">
        <ele>242</ele>
        <time>2022-01-29T09:08:14Z</time>
      </trkpt>
      <trkpt lat="44.14124" lon="5.01459">
        <ele>242</ele>
        <time>2022-01-29T09:08:15Z</time>
      </trkpt>
      <trkpt lat="44.14123" lon="5.01459">
        <ele>242</ele>
        <time>2022-01-29T09:08:16Z</time>
      </trkpt>
      <trkpt lat="44.1411" lon="5.01462">
        <ele>240</ele>
        <time>2022-01-29T09:08:25Z</time>
      </trkpt>
      <trkpt lat="44.14087" lon="5.01469">
        <ele>240</ele>
        <time>2022-01-29T09:08:37Z</time>
      </trkpt>
      <trkpt lat="44.14065" lon="5.01479">
        <ele>240</ele>
        <time>2022-01-29T09:08:49Z</time>
      </trkpt>
      <trkpt lat="44.14045" lon="5.01488">
        <ele>240</ele>
        <time>2022-01-29T09:09:00Z</time>
      </trkpt>
      <trkpt lat="44.14041" lon="5.01489">
        <ele>240</ele>
        <time>2022-01-29T09:09:03Z</time>
      </trkpt>
      <trkpt lat="44.14039" lon="5.0149">
        <ele>240</ele>
        <time>2022-01-29T09:09:04Z</time>
      </trkpt>
      <trkpt lat="44.14037" lon="5.01491">
        <ele>240</ele>
        <time>2022-01-29T09:09:05Z</time>
      </trkpt>
      <trkpt lat="44.14035" lon="5.01492">
        <ele>240</ele>
        <time>2022-01-29T09:09:06Z</time>
      </trkpt>
      <trkpt lat="44.14034" lon="5.01492">
        <ele>240</ele>
        <time>2022-01-29T09:09:07Z</time>
      </trkpt>
      <trkpt lat="44.14033" lon="5.01493">
        <ele>240</ele>
        <time>2022-01-29T09:09:08Z</time>
      </trkpt>
      <trkpt lat="44.14031" lon="5.01493">
        <ele>240</ele>
        <time>2022-01-29T09:09:09Z</time>
      </trkpt>
      <trkpt lat="44.14029" lon="5.01493">
        <ele>240</ele>
        <time>2022-01-29T09:09:10Z</time>
      </trkpt>
      <trkpt lat="44.14027" lon="5.01494">
        <ele>240</ele>
        <time>2022-01-29T09:09:11Z</time>
      </trkpt>
      <trkpt lat="44.14026" lon="5.01495">
        <ele>240</ele>
        <time>2022-01-29T09:09:12Z</time>
      </trkpt>
      <trkpt lat="44.14007" lon="5.01498">
        <ele>241</ele>
        <time>2022-01-29T09:09:23Z</time>
      </trkpt>
      <trkpt lat="44.1399" lon="5.01506">
        <ele>241</ele>
        <time>2022-01-29T09:09:33Z</time>
      </trkpt>
      <trkpt lat="44.13983" lon="5.0151">
        <ele>241</ele>
        <time>2022-01-29T09:09:37Z</time>
      </trkpt>
      <trkpt lat="44.13974" lon="5.01515">
        <ele>240</ele>
        <time>2022-01-29T09:09:42Z</time>
      </trkpt>
      <trkpt lat="44.13973" lon="5.01517">
        <ele>240</ele>
        <time>2022-01-29T09:09:43Z</time>
      </trkpt>
      <trkpt lat="44.13972" lon="5.01517">
        <ele>239</ele>
        <time>2022-01-29T09:09:44Z</time>
      </trkpt>
      <trkpt lat="44.1397" lon="5.01518">
        <ele>239</ele>
        <time>2022-01-29T09:09:45Z</time>
      </trkpt>
      <trkpt lat="44.13969" lon="5.01519">
        <ele>239</ele>
        <time>2022-01-29T09:09:46Z</time>
      </trkpt>
      <trkpt lat="44.1396" lon="5.01525">
        <ele>237</ele>
        <time>2022-01-29T09:09:52Z</time>
      </trkpt>
      <trkpt lat="44.13942" lon="5.01529">
        <ele>235</ele>
        <time>2022-01-29T09:10:02Z</time>
      </trkpt>
      <trkpt lat="44.13926" lon="5.01532">
        <ele>231</ele>
        <time>2022-01-29T09:10:12Z</time>
      </trkpt>
      <trkpt lat="44.1392" lon="5.01532">
        <ele>230</ele>
        <time>2022-01-29T09:10:16Z</time>
      </trkpt>
      <trkpt lat="44.13905" lon="5.01519">
        <ele>233</ele>
        <time>2022-01-29T09:10:28Z</time>
      </trkpt>
      <trkpt lat="44.13887" lon="5.0151">
        <ele>233</ele>
        <time>2022-01-29T09:10:40Z</time>
      </trkpt>
      <trkpt lat="44.13869" lon="5.01507">
        <ele>231</ele>
        <time>2022-01-29T09:10:51Z</time>
      </trkpt>
      <trkpt lat="44.13857" lon="5.015">
        <ele>232</ele>
        <time>2022-01-29T09:11:00Z</time>
      </trkpt>
      <trkpt lat="44.13856" lon="5.01498">
        <ele>232</ele>
        <time>2022-01-29T09:11:01Z</time>
      </trkpt>
      <trkpt lat="44.13855" lon="5.01497">
        <ele>232</ele>
        <time>2022-01-29T09:11:02Z</time>
      </trkpt>
      <trkpt lat="44.13854" lon="5.01495">
        <ele>232</ele>
        <time>2022-01-29T09:11:03Z</time>
      </trkpt>
      <trkpt lat="44.13853" lon="5.01494">
        <ele>233</ele>
        <time>2022-01-29T09:11:04Z</time>
      </trkpt>
      <trkpt lat="44.13852" lon="5.01493">
        <ele>233</ele>
        <time>2022-01-29T09:11:05Z</time>
      </trkpt>
      <trkpt lat="44.1385" lon="5.01492">
        <ele>233</ele>
        <time>2022-01-29T09:11:06Z</time>
      </trkpt>
      <trkpt lat="44.13849" lon="5.01491">
        <ele>233</ele>
        <time>2022-01-29T09:11:07Z</time>
      </trkpt>
      <trkpt lat="44.13845" lon="5.01487">
        <ele>233</ele>
        <time>2022-01-29T09:11:11Z</time>
      </trkpt>
      <trkpt lat="44.13844" lon="5.01486">
        <ele>234</ele>
        <time>2022-01-29T09:11:12Z</time>
      </trkpt>
      <trkpt lat="44.13841" lon="5.01485">
        <ele>234</ele>
        <time>2022-01-29T09:11:14Z</time>
      </trkpt>
      <trkpt lat="44.13839" lon="5.01484">
        <ele>234</ele>
        <time>2022-01-29T09:11:15Z</time>
      </trkpt>
      <trkpt lat="44.13837" lon="5.01484">
        <ele>233</ele>
        <time>2022-01-29T09:11:16Z</time>
      </trkpt>
      <trkpt lat="44.13834" lon="5.01484">
        <ele>233</ele>
        <time>2022-01-29T09:11:18Z</time>
      </trkpt>
      <trkpt lat="44.1383" lon="5.01483">
        <ele>233</ele>
        <time>2022-01-29T09:11:20Z</time>
      </trkpt>
      <trkpt lat="44.13828" lon="5.01483">
        <ele>233</ele>
        <time>2022-01-29T09:11:21Z</time>
      </trkpt>
      <trkpt lat="44.13812" lon="5.01477">
        <ele>234</ele>
        <time>2022-01-29T09:11:31Z</time>
      </trkpt>
      <trkpt lat="44.13808" lon="5.01474">
        <ele>235</ele>
        <time>2022-01-29T09:11:34Z</time>
      </trkpt>
      <trkpt lat="44.13792" lon="5.01474">
        <ele>235</ele>
        <time>2022-01-29T09:11:44Z</time>
      </trkpt>
      <trkpt lat="44.13784" lon="5.01471">
        <ele>235</ele>
        <time>2022-01-29T09:11:50Z</time>
      </trkpt>
      <trkpt lat="44.13778" lon="5.01469">
        <ele>236</ele>
        <time>2022-01-29T09:11:54Z</time>
      </trkpt>
      <trkpt lat="44.13777" lon="5.01469">
        <ele>236</ele>
        <time>2022-01-29T09:11:55Z</time>
      </trkpt>
      <trkpt lat="44.13775" lon="5.01469">
        <ele>236</ele>
        <time>2022-01-29T09:11:56Z</time>
      </trkpt>
      <trkpt lat="44.13774" lon="5.01469">
        <ele>236</ele>
        <time>2022-01-29T09:11:57Z</time>
      </trkpt>
      <trkpt lat="44.13772" lon="5.01469">
        <ele>236</ele>
        <time>2022-01-29T09:11:58Z</time>
      </trkpt>
      <trkpt lat="44.1377" lon="5.01469">
        <ele>236</ele>
        <time>2022-01-29T09:11:59Z</time>
      </trkpt>
      <trkpt lat="44.1376" lon="5.01464">
        <ele>238</ele>
        <time>2022-01-29T09:12:07Z</time>
      </trkpt>
      <trkpt lat="44.13743" lon="5.01459">
        <ele>238</ele>
        <time>2022-01-29T09:12:18Z</time>
      </trkpt>
      <trkpt lat="44.13743" lon="5.01453">
        <ele>240</ele>
        <time>2022-01-29T09:12:23Z</time>
      </trkpt>
      <trkpt lat="44.13744" lon="5.01451">
        <ele>240</ele>
        <time>2022-01-29T09:12:24Z</time>
      </trkpt>
      <trkpt lat="44.13745" lon="5.0145">
        <ele>241</ele>
        <time>2022-01-29T09:12:25Z</time>
      </trkpt>
      <trkpt lat="44.13745" lon="5.01448">
        <ele>241</ele>
        <time>2022-01-29T09:12:26Z</time>
      </trkpt>
      <trkpt lat="44.13746" lon="5.01446">
        <ele>242</ele>
        <time>2022-01-29T09:12:27Z</time>
      </trkpt>
      <trkpt lat="44.13748" lon="5.0144">
        <ele>243</ele>
        <time>2022-01-29T09:12:34Z</time>
      </trkpt>
      <trkpt lat="44.13748" lon="5.01438">
        <ele>244</ele>
        <time>2022-01-29T09:12:35Z</time>
      </trkpt>
      <trkpt lat="44.13748" lon="5.01436">
        <ele>244</ele>
        <time>2022-01-29T09:12:36Z</time>
      </trkpt>
      <trkpt lat="44.13748" lon="5.01434">
        <ele>245</ele>
        <time>2022-01-29T09:12:37Z</time>
      </trkpt>
      <trkpt lat="44.1375" lon="5.01419">
        <ele>248</ele>
        <time>2022-01-29T09:12:45Z</time>
      </trkpt>
      <trkpt lat="44.13749" lon="5.01413">
        <ele>248</ele>
        <time>2022-01-29T09:12:55Z</time>
      </trkpt>
      <trkpt lat="44.13753" lon="5.01399">
        <ele>249</ele>
        <time>2022-01-29T09:13:08Z</time>
      </trkpt>
      <trkpt lat="44.13757" lon="5.01394">
        <ele>250</ele>
        <time>2022-01-29T09:13:12Z</time>
      </trkpt>
      <trkpt lat="44.13758" lon="5.01399">
        <ele>250</ele>
        <time>2022-01-29T09:13:16Z</time>
      </trkpt>
      <trkpt lat="44.13759" lon="5.01421">
        <ele>249</ele>
        <time>2022-01-29T09:13:26Z</time>
      </trkpt>
      <trkpt lat="44.13764" lon="5.01424">
        <ele>248</ele>
        <time>2022-01-29T09:13:31Z</time>
      </trkpt>
      <trkpt lat="44.13781" lon="5.01411">
        <ele>253</ele>
        <time>2022-01-29T09:13:44Z</time>
      </trkpt>
      <trkpt lat="44.13784" lon="5.01409">
        <ele>253</ele>
        <time>2022-01-29T09:13:46Z</time>
      </trkpt>
      <trkpt lat="44.13804" lon="5.01397">
        <ele>258</ele>
        <time>2022-01-29T09:13:59Z</time>
      </trkpt>
      <trkpt lat="44.13822" lon="5.01387">
        <ele>260</ele>
        <time>2022-01-29T09:14:11Z</time>
      </trkpt>
      <trkpt lat="44.1384" lon="5.01375">
        <ele>262</ele>
        <time>2022-01-29T09:14:23Z</time>
      </trkpt>
      <trkpt lat="44.1385" lon="5.01367">
        <ele>263</ele>
        <time>2022-01-29T09:14:30Z</time>
      </trkpt>
      <trkpt lat="44.13863" lon="5.01361">
        <ele>265</ele>
        <time>2022-01-29T09:14:39Z</time>
      </trkpt>
      <trkpt lat="44.13869" lon="5.01365">
        <ele>265</ele>
        <time>2022-01-29T09:14:45Z</time>
      </trkpt>
      <trkpt lat="44.13878" lon="5.01348">
        <ele>267</ele>
        <time>2022-01-29T09:14:55Z</time>
      </trkpt>
      <trkpt lat="44.13897" lon="5.01329">
        <ele>268</ele>
        <time>2022-01-29T09:15:09Z</time>
      </trkpt>
      <trkpt lat="44.13912" lon="5.01313">
        <ele>268</ele>
        <time>2022-01-29T09:15:20Z</time>
      </trkpt>
      <trkpt lat="44.13926" lon="5.01295">
        <ele>269</ele>
        <time>2022-01-29T09:15:32Z</time>
      </trkpt>
      <trkpt lat="44.13945" lon="5.01278">
        <ele>271</ele>
        <time>2022-01-29T09:15:45Z</time>
      </trkpt>
      <trkpt lat="44.13961" lon="5.01267">
        <ele>273</ele>
        <time>2022-01-29T09:15:56Z</time>
      </trkpt>
      <trkpt lat="44.13979" lon="5.01255">
        <ele>274</ele>
        <time>2022-01-29T09:16:08Z</time>
      </trkpt>
      <trkpt lat="44.13997" lon="5.01248">
        <ele>276</ele>
        <time>2022-01-29T09:16:20Z</time>
      </trkpt>
      <trkpt lat="44.1401" lon="5.01239">
        <ele>278</ele>
        <time>2022-01-29T09:16:31Z</time>
      </trkpt>
      <trkpt lat="44.14024" lon="5.01228">
        <ele>279</ele>
        <time>2022-01-29T09:16:41Z</time>
      </trkpt>
      <trkpt lat="44.14035" lon="5.01216">
        <ele>279</ele>
        <time>2022-01-29T09:16:51Z</time>
      </trkpt>
      <trkpt lat="44.14038" lon="5.01213">
        <ele>279</ele>
        <time>2022-01-29T09:16:53Z</time>
      </trkpt>
      <trkpt lat="44.14041" lon="5.01209">
        <ele>279</ele>
        <time>2022-01-29T09:16:56Z</time>
      </trkpt>
      <trkpt lat="44.14047" lon="5.01204">
        <ele>279</ele>
        <time>2022-01-29T09:17:00Z</time>
      </trkpt>
      <trkpt lat="44.14061" lon="5.01192">
        <ele>279</ele>
        <time>2022-01-29T09:17:10Z</time>
      </trkpt>
      <trkpt lat="44.14075" lon="5.01176">
        <ele>278</ele>
        <time>2022-01-29T09:17:21Z</time>
      </trkpt>
      <trkpt lat="44.14091" lon="5.01158">
        <ele>277</ele>
        <time>2022-01-29T09:17:32Z</time>
      </trkpt>
      <trkpt lat="44.14104" lon="5.01147">
        <ele>277</ele>
        <time>2022-01-29T09:17:41Z</time>
      </trkpt>
      <trkpt lat="44.14106" lon="5.01145">
        <ele>277</ele>
        <time>2022-01-29T09:17:42Z</time>
      </trkpt>
      <trkpt lat="44.14124" lon="5.01129">
        <ele>274</ele>
        <time>2022-01-29T09:17:54Z</time>
      </trkpt>
      <trkpt lat="44.14126" lon="5.01128">
        <ele>274</ele>
        <time>2022-01-29T09:17:55Z</time>
      </trkpt>
      <trkpt lat="44.14134" lon="5.0112">
        <ele>272</ele>
        <time>2022-01-29T09:18:01Z</time>
      </trkpt>
      <trkpt lat="44.14152" lon="5.01109">
        <ele>268</ele>
        <time>2022-01-29T09:18:13Z</time>
      </trkpt>
      <trkpt lat="44.14163" lon="5.01107">
        <ele>266</ele>
        <time>2022-01-29T09:18:20Z</time>
      </trkpt>
      <trkpt lat="44.14174" lon="5.01096">
        <ele>264</ele>
        <time>2022-01-29T09:18:30Z</time>
      </trkpt>
      <trkpt lat="44.14171" lon="5.01083">
        <ele>262</ele>
        <time>2022-01-29T09:18:38Z</time>
      </trkpt>
      <trkpt lat="44.14158" lon="5.01073">
        <ele>261</ele>
        <time>2022-01-29T09:18:49Z</time>
      </trkpt>
      <trkpt lat="44.14149" lon="5.01065">
        <ele>260</ele>
        <time>2022-01-29T09:18:58Z</time>
      </trkpt>
      <trkpt lat="44.14148" lon="5.01065">
        <ele>259</ele>
        <time>2022-01-29T09:18:59Z</time>
      </trkpt>
      <trkpt lat="44.14132" lon="5.01059">
        <ele>257</ele>
        <time>2022-01-29T09:19:09Z</time>
      </trkpt>
      <trkpt lat="44.14128" lon="5.01059">
        <ele>256</ele>
        <time>2022-01-29T09:19:12Z</time>
      </trkpt>
      <trkpt lat="44.14109" lon="5.01068">
        <ele>256</ele>
        <time>2022-01-29T09:19:24Z</time>
      </trkpt>
      <trkpt lat="44.14097" lon="5.01073">
        <ele>255</ele>
        <time>2022-01-29T09:19:31Z</time>
      </trkpt>
      <trkpt lat="44.14094" lon="5.01074">
        <ele>254</ele>
        <time>2022-01-29T09:19:33Z</time>
      </trkpt>
      <trkpt lat="44.14092" lon="5.01075">
        <ele>254</ele>
        <time>2022-01-29T09:19:34Z</time>
      </trkpt>
      <trkpt lat="44.1409" lon="5.01075">
        <ele>254</ele>
        <time>2022-01-29T09:19:35Z</time>
      </trkpt>
      <trkpt lat="44.14075" lon="5.01079">
        <ele>251</ele>
        <time>2022-01-29T09:19:45Z</time>
      </trkpt>
      <trkpt lat="44.14059" lon="5.01079">
        <ele>248</ele>
        <time>2022-01-29T09:19:54Z</time>
      </trkpt>
      <trkpt lat="44.14058" lon="5.0108">
        <ele>247</ele>
        <time>2022-01-29T09:19:55Z</time>
      </trkpt>
      <trkpt lat="44.14056" lon="5.01081">
        <ele>247</ele>
        <time>2022-01-29T09:19:56Z</time>
      </trkpt>
      <trkpt lat="44.14053" lon="5.01082">
        <ele>247</ele>
        <time>2022-01-29T09:19:58Z</time>
      </trkpt>
      <trkpt lat="44.14052" lon="5.01082">
        <ele>246</ele>
        <time>2022-01-29T09:19:59Z</time>
      </trkpt>
      <trkpt lat="44.1405" lon="5.01083">
        <ele>246</ele>
        <time>2022-01-29T09:20:00Z</time>
      </trkpt>
      <trkpt lat="44.14033" lon="5.01086">
        <ele>242</ele>
        <time>2022-01-29T09:20:12Z</time>
      </trkpt>
      <trkpt lat="44.14025" lon="5.01086">
        <ele>240</ele>
        <time>2022-01-29T09:20:17Z</time>
      </trkpt>
      <trkpt lat="44.14024" lon="5.01085">
        <ele>240</ele>
        <time>2022-01-29T09:20:18Z</time>
      </trkpt>
      <trkpt lat="44.14022" lon="5.01084">
        <ele>240</ele>
        <time>2022-01-29T09:20:19Z</time>
      </trkpt>
      <trkpt lat="44.14021" lon="5.01083">
        <ele>239</ele>
        <time>2022-01-29T09:20:20Z</time>
      </trkpt>
      <trkpt lat="44.1402" lon="5.01082">
        <ele>239</ele>
        <time>2022-01-29T09:20:21Z</time>
      </trkpt>
      <trkpt lat="44.14021" lon="5.01069">
        <ele>237</ele>
        <time>2022-01-29T09:20:28Z</time>
      </trkpt>
      <trkpt lat="44.14023" lon="5.01068">
        <ele>237</ele>
        <time>2022-01-29T09:20:29Z</time>
      </trkpt>
      <trkpt lat="44.14024" lon="5.01067">
        <ele>237</ele>
        <time>2022-01-29T09:20:30Z</time>
      </trkpt>
      <trkpt lat="44.14026" lon="5.01066">
        <ele>237</ele>
        <time>2022-01-29T09:20:31Z</time>
      </trkpt>
      <trkpt lat="44.14027" lon="5.01065">
        <ele>237</ele>
        <time>2022-01-29T09:20:32Z</time>
      </trkpt>
      <trkpt lat="44.14029" lon="5.01064">
        <ele>237</ele>
        <time>2022-01-29T09:20:33Z</time>
      </trkpt>
      <trkpt lat="44.1403" lon="5.01063">
        <ele>237</ele>
        <time>2022-01-29T09:20:34Z</time>
      </trkpt>
      <trkpt lat="44.14032" lon="5.01063">
        <ele>237</ele>
        <time>2022-01-29T09:20:35Z</time>
      </trkpt>
      <trkpt lat="44.14044" lon="5.01054">
        <ele>236</ele>
        <time>2022-01-29T09:20:44Z</time>
      </trkpt>
      <trkpt lat="44.14045" lon="5.01052">
        <ele>236</ele>
        <time>2022-01-29T09:20:45Z</time>
      </trkpt>
      <trkpt lat="44.1406" lon="5.0104">
        <ele>236</ele>
        <time>2022-01-29T09:20:56Z</time>
      </trkpt>
      <trkpt lat="44.14065" lon="5.01035">
        <ele>236</ele>
        <time>2022-01-29T09:21:00Z</time>
      </trkpt>
      <trkpt lat="44.14066" lon="5.01034">
        <ele>235</ele>
        <time>2022-01-29T09:21:01Z</time>
      </trkpt>
      <trkpt lat="44.14081" lon="5.01018">
        <ele>235</ele>
        <time>2022-01-29T09:21:12Z</time>
      </trkpt>
      <trkpt lat="44.14089" lon="5.01003">
        <ele>234</ele>
        <time>2022-01-29T09:21:21Z</time>
      </trkpt>
      <trkpt lat="44.14091" lon="5.00993">
        <ele>234</ele>
        <time>2022-01-29T09:21:30Z</time>
      </trkpt>
      <trkpt lat="44.1409" lon="5.00989">
        <ele>233</ele>
        <time>2022-01-29T09:21:32Z</time>
      </trkpt>
      <trkpt lat="44.14088" lon="5.00987">
        <ele>233</ele>
        <time>2022-01-29T09:21:33Z</time>
      </trkpt>
      <trkpt lat="44.14075" lon="5.0097">
        <ele>230</ele>
        <time>2022-01-29T09:21:45Z</time>
      </trkpt>
      <trkpt lat="44.14062" lon="5.00955">
        <ele>228</ele>
        <time>2022-01-29T09:21:56Z</time>
      </trkpt>
      <trkpt lat="44.1405" lon="5.00949">
        <ele>225</ele>
        <time>2022-01-29T09:22:05Z</time>
      </trkpt>
      <trkpt lat="44.14041" lon="5.00943">
        <ele>223</ele>
        <time>2022-01-29T09:22:13Z</time>
      </trkpt>
      <trkpt lat="44.14036" lon="5.0093">
        <ele>222</ele>
        <time>2022-01-29T09:22:19Z</time>
      </trkpt>
      <trkpt lat="44.14034" lon="5.00923">
        <ele>222</ele>
        <time>2022-01-29T09:22:24Z</time>
      </trkpt>
      <trkpt lat="44.14023" lon="5.00917">
        <ele>220</ele>
        <time>2022-01-29T09:22:34Z</time>
      </trkpt>
      <trkpt lat="44.14006" lon="5.0091">
        <ele>217</ele>
        <time>2022-01-29T09:22:46Z</time>
      </trkpt>
      <trkpt lat="44.14003" lon="5.00909">
        <ele>216</ele>
        <time>2022-01-29T09:22:49Z</time>
      </trkpt>
      <trkpt lat="44.13996" lon="5.0091">
        <ele>215</ele>
        <time>2022-01-29T09:22:55Z</time>
      </trkpt>
      <trkpt lat="44.13983" lon="5.009">
        <ele>213</ele>
        <time>2022-01-29T09:23:07Z</time>
      </trkpt>
      <trkpt lat="44.13976" lon="5.0089">
        <ele>213</ele>
        <time>2022-01-29T09:23:18Z</time>
      </trkpt>
      <trkpt lat="44.13971" lon="5.00885">
        <ele>212</ele>
        <time>2022-01-29T09:23:29Z</time>
      </trkpt>
      <trkpt lat="44.13964" lon="5.00881">
        <ele>211</ele>
        <time>2022-01-29T09:23:37Z</time>
      </trkpt>
      <trkpt lat="44.13954" lon="5.00878">
        <ele>209</ele>
        <time>2022-01-29T09:23:50Z</time>
      </trkpt>
      <trkpt lat="44.13951" lon="5.00875">
        <ele>208</ele>
        <time>2022-01-29T09:23:55Z</time>
      </trkpt>
      <trkpt lat="44.13946" lon="5.00872">
        <ele>208</ele>
        <time>2022-01-29T09:24:00Z</time>
      </trkpt>
      <trkpt lat="44.13937" lon="5.00854">
        <ele>205</ele>
        <time>2022-01-29T09:24:12Z</time>
      </trkpt>
      <trkpt lat="44.13925" lon="5.00834">
        <ele>201</ele>
        <time>2022-01-29T09:24:25Z</time>
      </trkpt>
      <trkpt lat="44.13924" lon="5.00832">
        <ele>200</ele>
        <time>2022-01-29T09:24:26Z</time>
      </trkpt>
      <trkpt lat="44.13935" lon="5.00815">
        <ele>201</ele>
        <time>2022-01-29T09:24:36Z</time>
      </trkpt>
      <trkpt lat="44.13958" lon="5.00795">
        <ele>202</ele>
        <time>2022-01-29T09:24:51Z</time>
      </trkpt>
      <trkpt lat="44.13978" lon="5.00785">
        <ele>201</ele>
        <time>2022-01-29T09:25:03Z</time>
      </trkpt>
      <trkpt lat="44.14" lon="5.00775">
        <ele>200</ele>
        <time>2022-01-29T09:25:16Z</time>
      </trkpt>
      <trkpt lat="44.14009" lon="5.0077">
        <ele>200</ele>
        <time>2022-01-29T09:25:22Z</time>
      </trkpt>
      <trkpt lat="44.14021" lon="5.00767">
        <ele>200</ele>
        <time>2022-01-29T09:25:29Z</time>
      </trkpt>
      <trkpt lat="44.14046" lon="5.00757">
        <ele>201</ele>
        <time>2022-01-29T09:25:43Z</time>
      </trkpt>
      <trkpt lat="44.14068" lon="5.00747">
        <ele>202</ele>
        <time>2022-01-29T09:25:56Z</time>
      </trkpt>
      <trkpt lat="44.14088" lon="5.00741">
        <ele>204</ele>
        <time>2022-01-29T09:26:08Z</time>
      </trkpt>
      <trkpt lat="44.14108" lon="5.00736">
        <ele>207</ele>
        <time>2022-01-29T09:26:20Z</time>
      </trkpt>
      <trkpt lat="44.14126" lon="5.00733">
        <ele>211</ele>
        <time>2022-01-29T09:26:31Z</time>
      </trkpt>
      <trkpt lat="44.14147" lon="5.00728">
        <ele>214</ele>
        <time>2022-01-29T09:26:43Z</time>
      </trkpt>
      <trkpt lat="44.14164" lon="5.00723">
        <ele>215</ele>
        <time>2022-01-29T09:26:53Z</time>
      </trkpt>
      <trkpt lat="44.14181" lon="5.00723">
        <ele>217</ele>
        <time>2022-01-29T09:27:04Z</time>
      </trkpt>
      <trkpt lat="44.142" lon="5.00721">
        <ele>217</ele>
        <time>2022-01-29T09:27:15Z</time>
      </trkpt>
      <trkpt lat="44.14219" lon="5.00722">
        <ele>216</ele>
        <time>2022-01-29T09:27:26Z</time>
      </trkpt>
      <trkpt lat="44.14239" lon="5.00725">
        <ele>217</ele>
        <time>2022-01-29T09:27:39Z</time>
      </trkpt>
      <trkpt lat="44.14248" lon="5.00723">
        <ele>217</ele>
        <time>2022-01-29T09:27:46Z</time>
      </trkpt>
      <trkpt lat="44.14265" lon="5.00718">
        <ele>219</ele>
        <time>2022-01-29T09:27:59Z</time>
      </trkpt>
      <trkpt lat="44.14273" lon="5.0071">
        <ele>219</ele>
        <time>2022-01-29T09:28:04Z</time>
      </trkpt>
      <trkpt lat="44.14289" lon="5.00682">
        <ele>221</ele>
        <time>2022-01-29T09:28:18Z</time>
      </trkpt>
      <trkpt lat="44.14295" lon="5.00655">
        <ele>222</ele>
        <time>2022-01-29T09:28:30Z</time>
      </trkpt>
      <trkpt lat="44.14299" lon="5.00632">
        <ele>222</ele>
        <time>2022-01-29T09:28:41Z</time>
      </trkpt>
      <trkpt lat="44.14301" lon="5.00605">
        <ele>222</ele>
        <time>2022-01-29T09:28:53Z</time>
      </trkpt>
      <trkpt lat="44.14304" lon="5.006">
        <ele>223</ele>
        <time>2022-01-29T09:28:56Z</time>
      </trkpt>
      <trkpt lat="44.14303" lon="5.00593">
        <ele>222</ele>
        <time>2022-01-29T09:29:00Z</time>
      </trkpt>
      <trkpt lat="44.14297" lon="5.00569">
        <ele>223</ele>
        <time>2022-01-29T09:29:12Z</time>
      </trkpt>
      <trkpt lat="44.14296" lon="5.00564">
        <ele>223</ele>
        <time>2022-01-29T09:29:14Z</time>
      </trkpt>
      <trkpt lat="44.14279" lon="5.00543">
        <ele>222</ele>
        <time>2022-01-29T09:29:27Z</time>
      </trkpt>
      <trkpt lat="44.14269" lon="5.00532">
        <ele>222</ele>
        <time>2022-01-29T09:29:34Z</time>
      </trkpt>
      <trkpt lat="44.14268" lon="5.00529">
        <ele>222</ele>
        <time>2022-01-29T09:29:35Z</time>
      </trkpt>
      <trkpt lat="44.14275" lon="5.0051">
        <ele>225</ele>
        <time>2022-01-29T09:29:47Z</time>
      </trkpt>
      <trkpt lat="44.14277" lon="5.00509">
        <ele>226</ele>
        <time>2022-01-29T09:29:48Z</time>
      </trkpt>
      <trkpt lat="44.14278" lon="5.00502">
        <ele>227</ele>
        <time>2022-01-29T09:29:52Z</time>
      </trkpt>
      <trkpt lat="44.14267" lon="5.0048">
        <ele>222</ele>
        <time>2022-01-29T09:30:04Z</time>
      </trkpt>
      <trkpt lat="44.1425" lon="5.00473">
        <ele>220</ele>
        <time>2022-01-29T09:30:14Z</time>
      </trkpt>
      <trkpt lat="44.14244" lon="5.00465">
        <ele>220</ele>
        <time>2022-01-29T09:30:20Z</time>
      </trkpt>
      <trkpt lat="44.14249" lon="5.00464">
        <ele>220</ele>
        <time>2022-01-29T09:30:24Z</time>
      </trkpt>
      <trkpt lat="44.14266" lon="5.00468">
        <ele>221</ele>
        <time>2022-01-29T09:30:34Z</time>
      </trkpt>
      <trkpt lat="44.14274" lon="5.00467">
        <ele>222</ele>
        <time>2022-01-29T09:30:39Z</time>
      </trkpt>
      <trkpt lat="44.14274" lon="5.00454">
        <ele>220</ele>
        <time>2022-01-29T09:30:47Z</time>
      </trkpt>
      <trkpt lat="44.14268" lon="5.00431">
        <ele>217</ele>
        <time>2022-01-29T09:31:00Z</time>
      </trkpt>
      <trkpt lat="44.14264" lon="5.00413">
        <ele>215</ele>
        <time>2022-01-29T09:31:12Z</time>
      </trkpt>
      <trkpt lat="44.14264" lon="5.0041">
        <ele>215</ele>
        <time>2022-01-29T09:31:14Z</time>
      </trkpt>
      <trkpt lat="44.14259" lon="5.0039">
        <ele>213</ele>
        <time>2022-01-29T09:31:27Z</time>
      </trkpt>
      <trkpt lat="44.14259" lon="5.00386">
        <ele>213</ele>
        <time>2022-01-29T09:31:29Z</time>
      </trkpt>
      <trkpt lat="44.14264" lon="5.00374">
        <ele>211</ele>
        <time>2022-01-29T09:31:35Z</time>
      </trkpt>
      <trkpt lat="44.14282" lon="5.00353">
        <ele>208</ele>
        <time>2022-01-29T09:31:50Z</time>
      </trkpt>
      <trkpt lat="44.14286" lon="5.0035">
        <ele>208</ele>
        <time>2022-01-29T09:31:53Z</time>
      </trkpt>
      <trkpt lat="44.14296" lon="5.00335">
        <ele>206</ele>
        <time>2022-01-29T09:32:04Z</time>
      </trkpt>
      <trkpt lat="44.14301" lon="5.00329">
        <ele>205</ele>
        <time>2022-01-29T09:32:07Z</time>
      </trkpt>
      <trkpt lat="44.14311" lon="5.00314">
        <ele>205</ele>
        <time>2022-01-29T09:33:48Z</time>
      </trkpt>
      <trkpt lat="44.14314" lon="5.00319">
        <ele>206</ele>
        <time>2022-01-29T09:34:03Z</time>
      </trkpt>
      <trkpt lat="44.14316" lon="5.00322">
        <ele>206</ele>
        <time>2022-01-29T09:34:08Z</time>
      </trkpt>
      <trkpt lat="44.14322" lon="5.00329">
        <ele>207</ele>
        <time>2022-01-29T09:34:14Z</time>
      </trkpt>
      <trkpt lat="44.14326" lon="5.00336">
        <ele>208</ele>
        <time>2022-01-29T09:34:19Z</time>
      </trkpt>
      <trkpt lat="44.14331" lon="5.0034">
        <ele>209</ele>
        <time>2022-01-29T09:34:23Z</time>
      </trkpt>
      <trkpt lat="44.1434" lon="5.00345">
        <ele>210</ele>
        <time>2022-01-29T09:34:31Z</time>
      </trkpt>
      <trkpt lat="44.14349" lon="5.0035">
        <ele>210</ele>
        <time>2022-01-29T09:34:42Z</time>
      </trkpt>
      <trkpt lat="44.14357" lon="5.00358">
        <ele>210</ele>
        <time>2022-01-29T09:34:52Z</time>
      </trkpt>
      <trkpt lat="44.1436" lon="5.00359">
        <ele>210</ele>
        <time>2022-01-29T09:34:54Z</time>
      </trkpt>
      <trkpt lat="44.14365" lon="5.0036">
        <ele>210</ele>
        <time>2022-01-29T09:35:05Z</time>
      </trkpt>
      <trkpt lat="44.14373" lon="5.00362">
        <ele>210</ele>
        <time>2022-01-29T09:35:14Z</time>
      </trkpt>
      <trkpt lat="44.1438" lon="5.00366">
        <ele>210</ele>
        <time>2022-01-29T09:35:22Z</time>
      </trkpt>
      <trkpt lat="44.14393" lon="5.00368">
        <ele>210</ele>
        <time>2022-01-29T09:35:32Z</time>
      </trkpt>
      <trkpt lat="44.14394" lon="5.00368">
        <ele>210</ele>
        <time>2022-01-29T09:35:33Z</time>
      </trkpt>
      <trkpt lat="44.14406" lon="5.00369">
        <ele>211</ele>
        <time>2022-01-29T09:35:41Z</time>
      </trkpt>
      <trkpt lat="44.14419" lon="5.00379">
        <ele>212</ele>
        <time>2022-01-29T09:35:52Z</time>
      </trkpt>
      <trkpt lat="44.14431" lon="5.0039">
        <ele>213</ele>
        <time>2022-01-29T09:36:03Z</time>
      </trkpt>
      <trkpt lat="44.14432" lon="5.00391">
        <ele>214</ele>
        <time>2022-01-29T09:36:05Z</time>
      </trkpt>
      <trkpt lat="44.14442" lon="5.00403">
        <ele>217</ele>
        <time>2022-01-29T09:36:16Z</time>
      </trkpt>
      <trkpt lat="44.14444" lon="5.00412">
        <ele>218</ele>
        <time>2022-01-29T09:36:26Z</time>
      </trkpt>
      <trkpt lat="44.14445" lon="5.00417">
        <ele>219</ele>
        <time>2022-01-29T09:36:39Z</time>
      </trkpt>
      <trkpt lat="44.14449" lon="5.00422">
        <ele>220</ele>
        <time>2022-01-29T09:36:52Z</time>
      </trkpt>
      <trkpt lat="44.14451" lon="5.00425">
        <ele>221</ele>
        <time>2022-01-29T09:36:56Z</time>
      </trkpt>
      <trkpt lat="44.14455" lon="5.00431">
        <ele>222</ele>
        <time>2022-01-29T09:37:01Z</time>
      </trkpt>
      <trkpt lat="44.14458" lon="5.00438">
        <ele>224</ele>
        <time>2022-01-29T09:37:11Z</time>
      </trkpt>
      <trkpt lat="44.14463" lon="5.00449">
        <ele>227</ele>
        <time>2022-01-29T09:37:21Z</time>
      </trkpt>
      <trkpt lat="44.14466" lon="5.0046">
        <ele>229</ele>
        <time>2022-01-29T09:37:27Z</time>
      </trkpt>
      <trkpt lat="44.14477" lon="5.00465">
        <ele>232</ele>
        <time>2022-01-29T09:37:37Z</time>
      </trkpt>
      <trkpt lat="44.14488" lon="5.00457">
        <ele>234</ele>
        <time>2022-01-29T09:37:48Z</time>
      </trkpt>
      <trkpt lat="44.14497" lon="5.00452">
        <ele>235</ele>
        <time>2022-01-29T09:38:00Z</time>
      </trkpt>
      <trkpt lat="44.14501" lon="5.00445">
        <ele>235</ele>
        <time>2022-01-29T09:38:07Z</time>
      </trkpt>
      <trkpt lat="44.14507" lon="5.0044">
        <ele>235</ele>
        <time>2022-01-29T09:38:14Z</time>
      </trkpt>
      <trkpt lat="44.14509" lon="5.0044">
        <ele>236</ele>
        <time>2022-01-29T09:38:16Z</time>
      </trkpt>
      <trkpt lat="44.14515" lon="5.00439">
        <ele>236</ele>
        <time>2022-01-29T09:38:21Z</time>
      </trkpt>
      <trkpt lat="44.14516" lon="5.00439">
        <ele>236</ele>
        <time>2022-01-29T09:38:22Z</time>
      </trkpt>
      <trkpt lat="44.14531" lon="5.00441">
        <ele>239</ele>
        <time>2022-01-29T09:38:35Z</time>
      </trkpt>
      <trkpt lat="44.14534" lon="5.00442">
        <ele>240</ele>
        <time>2022-01-29T09:38:38Z</time>
      </trkpt>
      <trkpt lat="44.14546" lon="5.00447">
        <ele>242</ele>
        <time>2022-01-29T09:38:48Z</time>
      </trkpt>
      <trkpt lat="44.1455" lon="5.0045">
        <ele>243</ele>
        <time>2022-01-29T09:38:53Z</time>
      </trkpt>
      <trkpt lat="44.14563" lon="5.00454">
        <ele>245</ele>
        <time>2022-01-29T09:39:06Z</time>
      </trkpt>
      <trkpt lat="44.14573" lon="5.00455">
        <ele>247</ele>
        <time>2022-01-29T09:39:18Z</time>
      </trkpt>
      <trkpt lat="44.14583" lon="5.00451">
        <ele>247</ele>
        <time>2022-01-29T09:39:29Z</time>
      </trkpt>
      <trkpt lat="44.14592" lon="5.00448">
        <ele>248</ele>
        <time>2022-01-29T09:39:40Z</time>
      </trkpt>
      <trkpt lat="44.14594" lon="5.00447">
        <ele>248</ele>
        <time>2022-01-29T09:39:42Z</time>
      </trkpt>
      <trkpt lat="44.146" lon="5.00453">
        <ele>251</ele>
        <time>2022-01-29T09:39:50Z</time>
      </trkpt>
      <trkpt lat="44.14603" lon="5.00455">
        <ele>252</ele>
        <time>2022-01-29T09:39:53Z</time>
      </trkpt>
      <trkpt lat="44.14612" lon="5.00459">
        <ele>255</ele>
        <time>2022-01-29T09:40:00Z</time>
      </trkpt>
      <trkpt lat="44.14616" lon="5.0047">
        <ele>259</ele>
        <time>2022-01-29T09:40:11Z</time>
      </trkpt>
      <trkpt lat="44.14624" lon="5.00474">
        <ele>262</ele>
        <time>2022-01-29T09:40:22Z</time>
      </trkpt>
      <trkpt lat="44.14631" lon="5.0048">
        <ele>266</ele>
        <time>2022-01-29T09:40:32Z</time>
      </trkpt>
      <trkpt lat="44.14642" lon="5.00487">
        <ele>271</ele>
        <time>2022-01-29T09:40:42Z</time>
      </trkpt>
      <trkpt lat="44.14643" lon="5.0049">
        <ele>272</ele>
        <time>2022-01-29T09:40:46Z</time>
      </trkpt>
      <trkpt lat="44.14651" lon="5.00495">
        <ele>275</ele>
        <time>2022-01-29T09:40:57Z</time>
      </trkpt>
      <trkpt lat="44.14659" lon="5.00494">
        <ele>277</ele>
        <time>2022-01-29T09:41:07Z</time>
      </trkpt>
      <trkpt lat="44.14661" lon="5.00497">
        <ele>278</ele>
        <time>2022-01-29T09:41:12Z</time>
      </trkpt>
      <trkpt lat="44.14662" lon="5.005">
        <ele>279</ele>
        <time>2022-01-29T09:41:24Z</time>
      </trkpt>
      <trkpt lat="44.14657" lon="5.00503">
        <ele>279</ele>
        <time>2022-01-29T09:41:38Z</time>
      </trkpt>
      <trkpt lat="44.14649" lon="5.00505">
        <ele>278</ele>
        <time>2022-01-29T09:41:48Z</time>
      </trkpt>
      <trkpt lat="44.14647" lon="5.00505">
        <ele>278</ele>
        <time>2022-01-29T09:41:50Z</time>
      </trkpt>
      <trkpt lat="44.14643" lon="5.00505">
        <ele>277</ele>
        <time>2022-01-29T09:41:56Z</time>
      </trkpt>
      <trkpt lat="44.1463" lon="5.00516">
        <ele>277</ele>
        <time>2022-01-29T09:42:07Z</time>
      </trkpt>
      <trkpt lat="44.14621" lon="5.00521">
        <ele>276</ele>
        <time>2022-01-29T09:42:14Z</time>
      </trkpt>
      <trkpt lat="44.14615" lon="5.00523">
        <ele>275</ele>
        <time>2022-01-29T09:42:18Z</time>
      </trkpt>
      <trkpt lat="44.14601" lon="5.00531">
        <ele>272</ele>
        <time>2022-01-29T09:42:30Z</time>
      </trkpt>
      <trkpt lat="44.14587" lon="5.00536">
        <ele>269</ele>
        <time>2022-01-29T09:42:43Z</time>
      </trkpt>
      <trkpt lat="44.1457" lon="5.00543">
        <ele>265</ele>
        <time>2022-01-29T09:42:56Z</time>
      </trkpt>
      <trkpt lat="44.14563" lon="5.0055">
        <ele>264</ele>
        <time>2022-01-29T09:43:05Z</time>
      </trkpt>
      <trkpt lat="44.14559" lon="5.00553">
        <ele>263</ele>
        <time>2022-01-29T09:43:13Z</time>
      </trkpt>
      <trkpt lat="44.1455" lon="5.00571">
        <ele>262</ele>
        <time>2022-01-29T09:43:24Z</time>
      </trkpt>
      <trkpt lat="44.14539" lon="5.00593">
        <ele>262</ele>
        <time>2022-01-29T09:43:34Z</time>
      </trkpt>
      <trkpt lat="44.14538" lon="5.00598">
        <ele>262</ele>
        <time>2022-01-29T09:43:36Z</time>
      </trkpt>
      <trkpt lat="44.14527" lon="5.00608">
        <ele>261</ele>
        <time>2022-01-29T09:43:45Z</time>
      </trkpt>
      <trkpt lat="44.14522" lon="5.0061">
        <ele>261</ele>
        <time>2022-01-29T09:43:51Z</time>
      </trkpt>
      <trkpt lat="44.14506" lon="5.00616">
        <ele>262</ele>
        <time>2022-01-29T09:44:03Z</time>
      </trkpt>
      <trkpt lat="44.14505" lon="5.00617">
        <ele>262</ele>
        <time>2022-01-29T09:44:04Z</time>
      </trkpt>
      <trkpt lat="44.14486" lon="5.0063">
        <ele>264</ele>
        <time>2022-01-29T09:44:16Z</time>
      </trkpt>
      <trkpt lat="44.14474" lon="5.00638">
        <ele>263</ele>
        <time>2022-01-29T09:44:26Z</time>
      </trkpt>
      <trkpt lat="44.14463" lon="5.00648">
        <ele>263</ele>
        <time>2022-01-29T09:44:36Z</time>
      </trkpt>
      <trkpt lat="44.14454" lon="5.00659">
        <ele>262</ele>
        <time>2022-01-29T09:44:45Z</time>
      </trkpt>
      <trkpt lat="44.14452" lon="5.00675">
        <ele>265</ele>
        <time>2022-01-29T09:44:56Z</time>
      </trkpt>
      <trkpt lat="44.14444" lon="5.00684">
        <ele>264</ele>
        <time>2022-01-29T09:45:07Z</time>
      </trkpt>
      <trkpt lat="44.14435" lon="5.00695">
        <ele>263</ele>
        <time>2022-01-29T09:45:16Z</time>
      </trkpt>
      <trkpt lat="44.14433" lon="5.00703">
        <ele>264</ele>
        <time>2022-01-29T09:45:20Z</time>
      </trkpt>
      <trkpt lat="44.14431" lon="5.00712">
        <ele>265</ele>
        <time>2022-01-29T09:45:25Z</time>
      </trkpt>
      <trkpt lat="44.14428" lon="5.00724">
        <ele>266</ele>
        <time>2022-01-29T09:45:34Z</time>
      </trkpt>
      <trkpt lat="44.14418" lon="5.00736">
        <ele>261</ele>
        <time>2022-01-29T09:45:45Z</time>
      </trkpt>
      <trkpt lat="44.14411" lon="5.00748">
        <ele>259</ele>
        <time>2022-01-29T09:45:56Z</time>
      </trkpt>
      <trkpt lat="44.14405" lon="5.00763">
        <ele>257</ele>
        <time>2022-01-29T09:46:06Z</time>
      </trkpt>
      <trkpt lat="44.14409" lon="5.00785">
        <ele>261</ele>
        <time>2022-01-29T09:46:17Z</time>
      </trkpt>
      <trkpt lat="44.14409" lon="5.0079">
        <ele>261</ele>
        <time>2022-01-29T09:46:20Z</time>
      </trkpt>
      <trkpt lat="44.14413" lon="5.008">
        <ele>263</ele>
        <time>2022-01-29T09:46:26Z</time>
      </trkpt>
      <trkpt lat="44.14418" lon="5.00821">
        <ele>266</ele>
        <time>2022-01-29T09:46:39Z</time>
      </trkpt>
      <trkpt lat="44.14425" lon="5.00837">
        <ele>270</ele>
        <time>2022-01-29T09:46:51Z</time>
      </trkpt>
      <trkpt lat="44.14427" lon="5.00839">
        <ele>271</ele>
        <time>2022-01-29T09:46:53Z</time>
      </trkpt>
      <trkpt lat="44.14434" lon="5.00846">
        <ele>272</ele>
        <time>2022-01-29T09:46:59Z</time>
      </trkpt>
      <trkpt lat="44.14442" lon="5.0086">
        <ele>273</ele>
        <time>2022-01-29T09:47:10Z</time>
      </trkpt>
      <trkpt lat="44.14451" lon="5.00874">
        <ele>275</ele>
        <time>2022-01-29T09:47:21Z</time>
      </trkpt>
      <trkpt lat="44.14452" lon="5.00875">
        <ele>275</ele>
        <time>2022-01-29T09:47:22Z</time>
      </trkpt>
      <trkpt lat="44.14464" lon="5.00888">
        <ele>277</ele>
        <time>2022-01-29T09:47:34Z</time>
      </trkpt>
      <trkpt lat="44.14474" lon="5.00898">
        <ele>281</ele>
        <time>2022-01-29T09:47:46Z</time>
      </trkpt>
      <trkpt lat="44.14478" lon="5.00901">
        <ele>282</ele>
        <time>2022-01-29T09:47:50Z</time>
      </trkpt>
      <trkpt lat="44.14475" lon="5.00913">
        <ele>283</ele>
        <time>2022-01-29T09:48:01Z</time>
      </trkpt>
      <trkpt lat="44.14472" lon="5.00917">
        <ele>283</ele>
        <time>2022-01-29T09:48:06Z</time>
      </trkpt>
      <trkpt lat="44.14462" lon="5.00935">
        <ele>285</ele>
        <time>2022-01-29T09:48:17Z</time>
      </trkpt>
      <trkpt lat="44.14452" lon="5.00955">
        <ele>287</ele>
        <time>2022-01-29T09:48:29Z</time>
      </trkpt>
      <trkpt lat="44.14439" lon="5.00979">
        <ele>290</ele>
        <time>2022-01-29T09:48:41Z</time>
      </trkpt>
      <trkpt lat="44.14427" lon="5.00997">
        <ele>293</ele>
        <time>2022-01-29T09:48:52Z</time>
      </trkpt>
      <trkpt lat="44.14421" lon="5.01015">
        <ele>297</ele>
        <time>2022-01-29T09:49:04Z</time>
      </trkpt>
      <trkpt lat="44.1441" lon="5.0102">
        <ele>298</ele>
        <time>2022-01-29T09:49:15Z</time>
      </trkpt>
      <trkpt lat="44.14403" lon="5.0103">
        <ele>300</ele>
        <time>2022-01-29T09:49:25Z</time>
      </trkpt>
      <trkpt lat="44.14397" lon="5.01039">
        <ele>302</ele>
        <time>2022-01-29T09:49:35Z</time>
      </trkpt>
      <trkpt lat="44.14384" lon="5.01045">
        <ele>301</ele>
        <time>2022-01-29T09:49:47Z</time>
      </trkpt>
      <trkpt lat="44.14377" lon="5.01051">
        <ele>301</ele>
        <time>2022-01-29T09:49:52Z</time>
      </trkpt>
      <trkpt lat="44.14374" lon="5.01055">
        <ele>301</ele>
        <time>2022-01-29T09:49:56Z</time>
      </trkpt>
      <trkpt lat="44.14374" lon="5.01065">
        <ele>302</ele>
        <time>2022-01-29T09:50:02Z</time>
      </trkpt>
      <trkpt lat="44.14374" lon="5.01066">
        <ele>302</ele>
        <time>2022-01-29T09:50:03Z</time>
      </trkpt>
      <trkpt lat="44.14368" lon="5.01084">
        <ele>304</ele>
        <time>2022-01-29T09:50:15Z</time>
      </trkpt>
      <trkpt lat="44.14364" lon="5.01094">
        <ele>304</ele>
        <time>2022-01-29T09:50:23Z</time>
      </trkpt>
      <trkpt lat="44.14349" lon="5.01118">
        <ele>303</ele>
        <time>2022-01-29T09:50:35Z</time>
      </trkpt>
      <trkpt lat="44.14345" lon="5.01131">
        <ele>303</ele>
        <time>2022-01-29T09:50:43Z</time>
      </trkpt>
      <trkpt lat="44.14346" lon="5.0114">
        <ele>303</ele>
        <time>2022-01-29T09:50:48Z</time>
      </trkpt>
      <trkpt lat="44.14349" lon="5.01146">
        <ele>303</ele>
        <time>2022-01-29T09:50:52Z</time>
      </trkpt>
      <trkpt lat="44.14364" lon="5.01155">
        <ele>303</ele>
        <time>2022-01-29T09:51:03Z</time>
      </trkpt>
      <trkpt lat="44.14382" lon="5.01154">
        <ele>311</ele>
        <time>2022-01-29T09:51:14Z</time>
      </trkpt>
      <trkpt lat="44.14399" lon="5.0115">
        <ele>315</ele>
        <time>2022-01-29T09:51:26Z</time>
      </trkpt>
      <trkpt lat="44.14402" lon="5.01149">
        <ele>316</ele>
        <time>2022-01-29T09:51:28Z</time>
      </trkpt>
      <trkpt lat="44.14419" lon="5.01142">
        <ele>317</ele>
        <time>2022-01-29T09:51:39Z</time>
      </trkpt>
      <trkpt lat="44.14424" lon="5.01141">
        <ele>316</ele>
        <time>2022-01-29T09:51:42Z</time>
      </trkpt>
      <trkpt lat="44.14441" lon="5.01143">
        <ele>315</ele>
        <time>2022-01-29T09:51:52Z</time>
      </trkpt>
      <trkpt lat="44.14447" lon="5.01144">
        <ele>314</ele>
        <time>2022-01-29T09:51:57Z</time>
      </trkpt>
      <trkpt lat="44.14462" lon="5.01142">
        <ele>310</ele>
        <time>2022-01-29T09:52:06Z</time>
      </trkpt>
      <trkpt lat="44.14482" lon="5.01133">
        <ele>308</ele>
        <time>2022-01-29T09:52:18Z</time>
      </trkpt>
      <trkpt lat="44.14485" lon="5.0113">
        <ele>308</ele>
        <time>2022-01-29T09:52:21Z</time>
      </trkpt>
      <trkpt lat="44.14492" lon="5.01124">
        <ele>309</ele>
        <time>2022-01-29T09:52:28Z</time>
      </trkpt>
      <trkpt lat="44.14494" lon="5.01121">
        <ele>309</ele>
        <time>2022-01-29T09:52:30Z</time>
      </trkpt>
      <trkpt lat="44.14507" lon="5.01107">
        <ele>312</ele>
        <time>2022-01-29T09:52:42Z</time>
      </trkpt>
      <trkpt lat="44.14521" lon="5.01097">
        <ele>314</ele>
        <time>2022-01-29T09:52:51Z</time>
      </trkpt>
      <trkpt lat="44.14527" lon="5.01094">
        <ele>314</ele>
        <time>2022-01-29T09:52:55Z</time>
      </trkpt>
      <trkpt lat="44.14543" lon="5.0108">
        <ele>317</ele>
        <time>2022-01-29T09:53:08Z</time>
      </trkpt>
      <trkpt lat="44.1456" lon="5.01065">
        <ele>320</ele>
        <time>2022-01-29T09:53:21Z</time>
      </trkpt>
      <trkpt lat="44.14566" lon="5.01055">
        <ele>323</ele>
        <time>2022-01-29T09:53:28Z</time>
      </trkpt>
      <trkpt lat="44.14575" lon="5.01039">
        <ele>324</ele>
        <time>2022-01-29T09:53:39Z</time>
      </trkpt>
      <trkpt lat="44.14588" lon="5.01018">
        <ele>326</ele>
        <time>2022-01-29T09:53:51Z</time>
      </trkpt>
      <trkpt lat="44.14599" lon="5.0099">
        <ele>325</ele>
        <time>2022-01-29T09:54:04Z</time>
      </trkpt>
      <trkpt lat="44.14614" lon="5.00966">
        <ele>326</ele>
        <time>2022-01-29T09:54:17Z</time>
      </trkpt>
      <trkpt lat="44.14626" lon="5.00945">
        <ele>327</ele>
        <time>2022-01-29T09:54:28Z</time>
      </trkpt>
      <trkpt lat="44.14631" lon="5.00921">
        <ele>326</ele>
        <time>2022-01-29T09:54:39Z</time>
      </trkpt>
      <trkpt lat="44.14627" lon="5.00894">
        <ele>324</ele>
        <time>2022-01-29T09:54:52Z</time>
      </trkpt>
      <trkpt lat="44.14626" lon="5.00885">
        <ele>323</ele>
        <time>2022-01-29T09:54:56Z</time>
      </trkpt>
      <trkpt lat="44.14624" lon="5.00877">
        <ele>323</ele>
        <time>2022-01-29T09:54:59Z</time>
      </trkpt>
      <trkpt lat="44.14618" lon="5.00852">
        <ele>320</ele>
        <time>2022-01-29T09:55:11Z</time>
      </trkpt>
      <trkpt lat="44.14618" lon="5.00828">
        <ele>321</ele>
        <time>2022-01-29T09:55:23Z</time>
      </trkpt>
      <trkpt lat="44.14624" lon="5.00817">
        <ele>322</ele>
        <time>2022-01-29T09:55:30Z</time>
      </trkpt>
      <trkpt lat="44.14624" lon="5.00809">
        <ele>322</ele>
        <time>2022-01-29T09:55:34Z</time>
      </trkpt>
      <trkpt lat="44.14628" lon="5.00803">
        <ele>322</ele>
        <time>2022-01-29T09:55:39Z</time>
      </trkpt>
      <trkpt lat="44.14637" lon="5.00797">
        <ele>323</ele>
        <time>2022-01-29T09:55:48Z</time>
      </trkpt>
      <trkpt lat="44.14644" lon="5.00787">
        <ele>323</ele>
        <time>2022-01-29T09:55:55Z</time>
      </trkpt>
      <trkpt lat="44.14654" lon="5.00766">
        <ele>321</ele>
        <time>2022-01-29T09:56:07Z</time>
      </trkpt>
      <trkpt lat="44.14659" lon="5.00744">
        <ele>318</ele>
        <time>2022-01-29T09:56:19Z</time>
      </trkpt>
      <trkpt lat="44.14664" lon="5.00717">
        <ele>316</ele>
        <time>2022-01-29T09:56:31Z</time>
      </trkpt>
      <trkpt lat="44.14673" lon="5.00688">
        <ele>315</ele>
        <time>2022-01-29T09:56:44Z</time>
      </trkpt>
      <trkpt lat="44.14674" lon="5.00685">
        <ele>316</ele>
        <time>2022-01-29T09:56:46Z</time>
      </trkpt>
      <trkpt lat="44.14688" lon="5.00669">
        <ele>318</ele>
        <time>2022-01-29T09:56:58Z</time>
      </trkpt>
      <trkpt lat="44.14706" lon="5.00664">
        <ele>320</ele>
        <time>2022-01-29T09:57:10Z</time>
      </trkpt>
      <trkpt lat="44.14714" lon="5.00658">
        <ele>319</ele>
        <time>2022-01-29T09:57:16Z</time>
      </trkpt>
      <trkpt lat="44.14719" lon="5.00653">
        <ele>318</ele>
        <time>2022-01-29T09:57:20Z</time>
      </trkpt>
      <trkpt lat="44.1473" lon="5.00651">
        <ele>318</ele>
        <time>2022-01-29T09:57:28Z</time>
      </trkpt>
      <trkpt lat="44.14745" lon="5.0065">
        <ele>317</ele>
        <time>2022-01-29T09:57:40Z</time>
      </trkpt>
      <trkpt lat="44.14753" lon="5.00649">
        <ele>316</ele>
        <time>2022-01-29T09:57:46Z</time>
      </trkpt>
      <trkpt lat="44.14755" lon="5.00649">
        <ele>316</ele>
        <time>2022-01-29T09:57:48Z</time>
      </trkpt>
      <trkpt lat="44.14776" lon="5.00653">
        <ele>311</ele>
        <time>2022-01-29T09:58:02Z</time>
      </trkpt>
      <trkpt lat="44.14788" lon="5.00657">
        <ele>308</ele>
        <time>2022-01-29T09:58:13Z</time>
      </trkpt>
      <trkpt lat="44.14792" lon="5.00657">
        <ele>307</ele>
        <time>2022-01-29T09:58:30Z</time>
      </trkpt>
      <trkpt lat="44.14794" lon="5.00657">
        <ele>306</ele>
        <time>2022-01-29T09:58:34Z</time>
      </trkpt>
      <trkpt lat="44.14797" lon="5.00664">
        <ele>307</ele>
        <time>2022-01-29T09:58:46Z</time>
      </trkpt>
      <trkpt lat="44.14799" lon="5.00668">
        <ele>307</ele>
        <time>2022-01-29T09:58:49Z</time>
      </trkpt>
      <trkpt lat="44.148" lon="5.00672">
        <ele>307</ele>
        <time>2022-01-29T09:58:51Z</time>
      </trkpt>
      <trkpt lat="44.14803" lon="5.00677">
        <ele>308</ele>
        <time>2022-01-29T09:58:54Z</time>
      </trkpt>
      <trkpt lat="44.14814" lon="5.0069">
        <ele>312</ele>
        <time>2022-01-29T09:59:05Z</time>
      </trkpt>
      <trkpt lat="44.14828" lon="5.00702">
        <ele>319</ele>
        <time>2022-01-29T09:59:16Z</time>
      </trkpt>
      <trkpt lat="44.14846" lon="5.00711">
        <ele>325</ele>
        <time>2022-01-29T09:59:29Z</time>
      </trkpt>
      <trkpt lat="44.14854" lon="5.00714">
        <ele>326</ele>
        <time>2022-01-29T09:59:35Z</time>
      </trkpt>
      <trkpt lat="44.14872" lon="5.00719">
        <ele>328</ele>
        <time>2022-01-29T09:59:48Z</time>
      </trkpt>
      <trkpt lat="44.14889" lon="5.00724">
        <ele>330</ele>
        <time>2022-01-29T10:00:00Z</time>
      </trkpt>
      <trkpt lat="44.14908" lon="5.00721">
        <ele>328</ele>
        <time>2022-01-29T10:00:13Z</time>
      </trkpt>
      <trkpt lat="44.14925" lon="5.00704">
        <ele>325</ele>
        <time>2022-01-29T10:00:26Z</time>
      </trkpt>
      <trkpt lat="44.14939" lon="5.00689">
        <ele>324</ele>
        <time>2022-01-29T10:00:36Z</time>
      </trkpt>
      <trkpt lat="44.14946" lon="5.00684">
        <ele>325</ele>
        <time>2022-01-29T10:00:41Z</time>
      </trkpt>
      <trkpt lat="44.14961" lon="5.0069">
        <ele>327</ele>
        <time>2022-01-29T10:00:52Z</time>
      </trkpt>
      <trkpt lat="44.14972" lon="5.00702">
        <ele>329</ele>
        <time>2022-01-29T10:01:01Z</time>
      </trkpt>
      <trkpt lat="44.14982" lon="5.00713">
        <ele>332</ele>
        <time>2022-01-29T10:01:10Z</time>
      </trkpt>
      <trkpt lat="44.14986" lon="5.00716">
        <ele>333</ele>
        <time>2022-01-29T10:01:13Z</time>
      </trkpt>
      <trkpt lat="44.15002" lon="5.00721">
        <ele>337</ele>
        <time>2022-01-29T10:01:24Z</time>
      </trkpt>
      <trkpt lat="44.15015" lon="5.00738">
        <ele>339</ele>
        <time>2022-01-29T10:01:36Z</time>
      </trkpt>
      <trkpt lat="44.15031" lon="5.00754">
        <ele>340</ele>
        <time>2022-01-29T10:01:49Z</time>
      </trkpt>
      <trkpt lat="44.15045" lon="5.00766">
        <ele>341</ele>
        <time>2022-01-29T10:02:00Z</time>
      </trkpt>
      <trkpt lat="44.1506" lon="5.00777">
        <ele>339</ele>
        <time>2022-01-29T10:02:12Z</time>
      </trkpt>
      <trkpt lat="44.15062" lon="5.00776">
        <ele>339</ele>
        <time>2022-01-29T10:02:14Z</time>
      </trkpt>
      <trkpt lat="44.15067" lon="5.00775">
        <ele>339</ele>
        <time>2022-01-29T10:02:22Z</time>
      </trkpt>
      <trkpt lat="44.15076" lon="5.00776">
        <ele>338</ele>
        <time>2022-01-29T10:02:32Z</time>
      </trkpt>
      <trkpt lat="44.15089" lon="5.00778">
        <ele>337</ele>
        <time>2022-01-29T10:02:43Z</time>
      </trkpt>
      <trkpt lat="44.15108" lon="5.00777">
        <ele>332</ele>
        <time>2022-01-29T10:02:53Z</time>
      </trkpt>
      <trkpt lat="44.15112" lon="5.00773">
        <ele>331</ele>
        <time>2022-01-29T10:02:59Z</time>
      </trkpt>
      <trkpt lat="44.15119" lon="5.00765">
        <ele>331</ele>
        <time>2022-01-29T10:03:05Z</time>
      </trkpt>
      <trkpt lat="44.15121" lon="5.00761">
        <ele>331</ele>
        <time>2022-01-29T10:03:08Z</time>
      </trkpt>
      <trkpt lat="44.15131" lon="5.00755">
        <ele>329</ele>
        <time>2022-01-29T10:03:15Z</time>
      </trkpt>
      <trkpt lat="44.15137" lon="5.00757">
        <ele>327</ele>
        <time>2022-01-29T10:03:19Z</time>
      </trkpt>
      <trkpt lat="44.15141" lon="5.00766">
        <ele>325</ele>
        <time>2022-01-29T10:03:30Z</time>
      </trkpt>
      <trkpt lat="44.15138" lon="5.00784">
        <ele>326</ele>
        <time>2022-01-29T10:03:38Z</time>
      </trkpt>
      <trkpt lat="44.15139" lon="5.00801">
        <ele>327</ele>
        <time>2022-01-29T10:03:45Z</time>
      </trkpt>
      <trkpt lat="44.15142" lon="5.00807">
        <ele>327</ele>
        <time>2022-01-29T10:03:50Z</time>
      </trkpt>
      <trkpt lat="44.15155" lon="5.00795">
        <ele>325</ele>
        <time>2022-01-29T10:04:03Z</time>
      </trkpt>
      <trkpt lat="44.1517" lon="5.00784">
        <ele>323</ele>
        <time>2022-01-29T10:04:15Z</time>
      </trkpt>
      <trkpt lat="44.15182" lon="5.00769">
        <ele>321</ele>
        <time>2022-01-29T10:04:24Z</time>
      </trkpt>
      <trkpt lat="44.15195" lon="5.00742">
        <ele>318</ele>
        <time>2022-01-29T10:04:36Z</time>
      </trkpt>
      <trkpt lat="44.15203" lon="5.00725">
        <ele>315</ele>
        <time>2022-01-29T10:04:47Z</time>
      </trkpt>
      <trkpt lat="44.15213" lon="5.00704">
        <ele>313</ele>
        <time>2022-01-29T10:04:59Z</time>
      </trkpt>
      <trkpt lat="44.15218" lon="5.00693">
        <ele>311</ele>
        <time>2022-01-29T10:05:05Z</time>
      </trkpt>
      <trkpt lat="44.1523" lon="5.00677">
        <ele>309</ele>
        <time>2022-01-29T10:05:16Z</time>
      </trkpt>
      <trkpt lat="44.15239" lon="5.00666">
        <ele>308</ele>
        <time>2022-01-29T10:05:25Z</time>
      </trkpt>
      <trkpt lat="44.15243" lon="5.00662">
        <ele>307</ele>
        <time>2022-01-29T10:05:29Z</time>
      </trkpt>
      <trkpt lat="44.15253" lon="5.00646">
        <ele>304</ele>
        <time>2022-01-29T10:05:39Z</time>
      </trkpt>
      <trkpt lat="44.15269" lon="5.00629">
        <ele>300</ele>
        <time>2022-01-29T10:05:53Z</time>
      </trkpt>
      <trkpt lat="44.15284" lon="5.00614">
        <ele>297</ele>
        <time>2022-01-29T10:06:05Z</time>
      </trkpt>
      <trkpt lat="44.15292" lon="5.00604">
        <ele>294</ele>
        <time>2022-01-29T10:06:15Z</time>
      </trkpt>
      <trkpt lat="44.15301" lon="5.00598">
        <ele>291</ele>
        <time>2022-01-29T10:06:22Z</time>
      </trkpt>
      <trkpt lat="44.15304" lon="5.00594">
        <ele>290</ele>
        <time>2022-01-29T10:06:25Z</time>
      </trkpt>
      <trkpt lat="44.15309" lon="5.0059">
        <ele>289</ele>
        <time>2022-01-29T10:06:30Z</time>
      </trkpt>
      <trkpt lat="44.15316" lon="5.00591">
        <ele>288</ele>
        <time>2022-01-29T10:06:38Z</time>
      </trkpt>
      <trkpt lat="44.15323" lon="5.00605">
        <ele>288</ele>
        <time>2022-01-29T10:06:49Z</time>
      </trkpt>
      <trkpt lat="44.15329" lon="5.00614">
        <ele>288</ele>
        <time>2022-01-29T10:06:55Z</time>
      </trkpt>
      <trkpt lat="44.15337" lon="5.00621">
        <ele>288</ele>
        <time>2022-01-29T10:07:01Z</time>
      </trkpt>
      <trkpt lat="44.15358" lon="5.00611">
        <ele>285</ele>
        <time>2022-01-29T10:07:13Z</time>
      </trkpt>
      <trkpt lat="44.15375" lon="5.00602">
        <ele>286</ele>
        <time>2022-01-29T10:07:24Z</time>
      </trkpt>
      <trkpt lat="44.15378" lon="5.00599">
        <ele>286</ele>
        <time>2022-01-29T10:07:26Z</time>
      </trkpt>
      <trkpt lat="44.15388" lon="5.0058">
        <ele>286</ele>
        <time>2022-01-29T10:07:38Z</time>
      </trkpt>
      <trkpt lat="44.15389" lon="5.00577">
        <ele>285</ele>
        <time>2022-01-29T10:07:40Z</time>
      </trkpt>
      <trkpt lat="44.154" lon="5.00552">
        <ele>286</ele>
        <time>2022-01-29T10:07:51Z</time>
      </trkpt>
      <trkpt lat="44.15402" lon="5.00548">
        <ele>286</ele>
        <time>2022-01-29T10:07:53Z</time>
      </trkpt>
      <trkpt lat="44.15416" lon="5.00528">
        <ele>287</ele>
        <time>2022-01-29T10:08:05Z</time>
      </trkpt>
      <trkpt lat="44.15435" lon="5.00503">
        <ele>290</ele>
        <time>2022-01-29T10:08:19Z</time>
      </trkpt>
      <trkpt lat="44.15451" lon="5.00468">
        <ele>288</ele>
        <time>2022-01-29T10:08:33Z</time>
      </trkpt>
      <trkpt lat="44.15463" lon="5.00453">
        <ele>289</ele>
        <time>2022-01-29T10:08:44Z</time>
      </trkpt>
      <trkpt lat="44.15472" lon="5.00441">
        <ele>290</ele>
        <time>2022-01-29T10:08:52Z</time>
      </trkpt>
      <trkpt lat="44.15475" lon="5.00437">
        <ele>290</ele>
        <time>2022-01-29T10:08:55Z</time>
      </trkpt>
      <trkpt lat="44.15485" lon="5.00416">
        <ele>288</ele>
        <time>2022-01-29T10:09:05Z</time>
      </trkpt>
      <trkpt lat="44.15497" lon="5.00392">
        <ele>286</ele>
        <time>2022-01-29T10:09:15Z</time>
      </trkpt>
      <trkpt lat="44.15509" lon="5.00376">
        <ele>284</ele>
        <time>2022-01-29T10:09:25Z</time>
      </trkpt>
      <trkpt lat="44.15514" lon="5.00372">
        <ele>284</ele>
        <time>2022-01-29T10:09:29Z</time>
      </trkpt>
      <trkpt lat="44.15531" lon="5.00373">
        <ele>287</ele>
        <time>2022-01-29T10:09:41Z</time>
      </trkpt>
      <trkpt lat="44.15544" lon="5.00371">
        <ele>286</ele>
        <time>2022-01-29T10:09:49Z</time>
      </trkpt>
      <trkpt lat="44.15554" lon="5.00368">
        <ele>286</ele>
        <time>2022-01-29T10:09:58Z</time>
      </trkpt>
      <trkpt lat="44.15567" lon="5.00357">
        <ele>285</ele>
        <time>2022-01-29T10:10:06Z</time>
      </trkpt>
      <trkpt lat="44.15569" lon="5.00354">
        <ele>286</ele>
        <time>2022-01-29T10:10:07Z</time>
      </trkpt>
      <trkpt lat="44.15571" lon="5.00352">
        <ele>286</ele>
        <time>2022-01-29T10:10:08Z</time>
      </trkpt>
      <trkpt lat="44.15574" lon="5.00346">
        <ele>286</ele>
        <time>2022-01-29T10:10:11Z</time>
      </trkpt>
      <trkpt lat="44.15575" lon="5.00344">
        <ele>286</ele>
        <time>2022-01-29T10:10:12Z</time>
      </trkpt>
      <trkpt lat="44.15585" lon="5.00311">
        <ele>287</ele>
        <time>2022-01-29T10:10:23Z</time>
      </trkpt>
      <trkpt lat="44.15585" lon="5.00308">
        <ele>287</ele>
        <time>2022-01-29T10:10:24Z</time>
      </trkpt>
      <trkpt lat="44.15593" lon="5.00283">
        <ele>289</ele>
        <time>2022-01-29T10:10:37Z</time>
      </trkpt>
      <trkpt lat="44.15594" lon="5.0027">
        <ele>288</ele>
        <time>2022-01-29T10:10:46Z</time>
      </trkpt>
      <trkpt lat="44.15596" lon="5.00257">
        <ele>288</ele>
        <time>2022-01-29T10:11:02Z</time>
      </trkpt>
      <trkpt lat="44.15602" lon="5.00234">
        <ele>287</ele>
        <time>2022-01-29T10:11:14Z</time>
      </trkpt>
      <trkpt lat="44.15603" lon="5.00233">
        <ele>287</ele>
        <time>2022-01-29T10:11:15Z</time>
      </trkpt>
      <trkpt lat="44.15605" lon="5.00231">
        <ele>287</ele>
        <time>2022-01-29T10:11:16Z</time>
      </trkpt>
      <trkpt lat="44.15606" lon="5.0023">
        <ele>287</ele>
        <time>2022-01-29T10:11:17Z</time>
      </trkpt>
      <trkpt lat="44.15608" lon="5.00229">
        <ele>287</ele>
        <time>2022-01-29T10:11:18Z</time>
      </trkpt>
      <trkpt lat="44.15609" lon="5.00228">
        <ele>287</ele>
        <time>2022-01-29T10:11:19Z</time>
      </trkpt>
      <trkpt lat="44.15611" lon="5.00227">
        <ele>287</ele>
        <time>2022-01-29T10:11:20Z</time>
      </trkpt>
      <trkpt lat="44.15617" lon="5.00219">
        <ele>286</ele>
        <time>2022-01-29T10:12:40Z</time>
      </trkpt>
      <trkpt lat="44.15618" lon="5.00215">
        <ele>284</ele>
        <time>2022-01-29T10:12:47Z</time>
      </trkpt>
      <trkpt lat="44.1562" lon="5.00212">
        <ele>284</ele>
        <time>2022-01-29T10:12:51Z</time>
      </trkpt>
      <trkpt lat="44.15624" lon="5.00207">
        <ele>282</ele>
        <time>2022-01-29T10:13:00Z</time>
      </trkpt>
      <trkpt lat="44.1563" lon="5.002">
        <ele>280</ele>
        <time>2022-01-29T10:13:11Z</time>
      </trkpt>
      <trkpt lat="44.1563" lon="5.00194">
        <ele>278</ele>
        <time>2022-01-29T10:13:19Z</time>
      </trkpt>
      <trkpt lat="44.15622" lon="5.00184">
        <ele>277</ele>
        <time>2022-01-29T10:13:33Z</time>
      </trkpt>
      <trkpt lat="44.15615" lon="5.00175">
        <ele>275</ele>
        <time>2022-01-29T10:13:41Z</time>
      </trkpt>
      <trkpt lat="44.15609" lon="5.00169">
        <ele>274</ele>
        <time>2022-01-29T10:13:48Z</time>
      </trkpt>
      <trkpt lat="44.15607" lon="5.00165">
        <ele>273</ele>
        <time>2022-01-29T10:13:52Z</time>
      </trkpt>
      <trkpt lat="44.15603" lon="5.00156">
        <ele>270</ele>
        <time>2022-01-29T10:14:03Z</time>
      </trkpt>
      <trkpt lat="44.15599" lon="5.00151">
        <ele>269</ele>
        <time>2022-01-29T10:14:13Z</time>
      </trkpt>
      <trkpt lat="44.15594" lon="5.00151">
        <ele>269</ele>
        <time>2022-01-29T10:14:22Z</time>
      </trkpt>
      <trkpt lat="44.15593" lon="5.00151">
        <ele>269</ele>
        <time>2022-01-29T10:14:23Z</time>
      </trkpt>
      <trkpt lat="44.15581" lon="5.00154">
        <ele>270</ele>
        <time>2022-01-29T10:14:33Z</time>
      </trkpt>
      <trkpt lat="44.15574" lon="5.00149">
        <ele>267</ele>
        <time>2022-01-29T10:14:41Z</time>
      </trkpt>
      <trkpt lat="44.15571" lon="5.00153">
        <ele>268</ele>
        <time>2022-01-29T10:16:31Z</time>
      </trkpt>
      <trkpt lat="44.15571" lon="5.00156">
        <ele>269</ele>
        <time>2022-01-29T10:16:37Z</time>
      </trkpt>
      <trkpt lat="44.15563" lon="5.00168">
        <ele>270</ele>
        <time>2022-01-29T10:16:49Z</time>
      </trkpt>
      <trkpt lat="44.15559" lon="5.00172">
        <ele>269</ele>
        <time>2022-01-29T10:16:54Z</time>
      </trkpt>
      <trkpt lat="44.15553" lon="5.00185">
        <ele>267</ele>
        <time>2022-01-29T10:17:05Z</time>
      </trkpt>
      <trkpt lat="44.15548" lon="5.00197">
        <ele>265</ele>
        <time>2022-01-29T10:17:11Z</time>
      </trkpt>
      <trkpt lat="44.15541" lon="5.00213">
        <ele>262</ele>
        <time>2022-01-29T10:17:22Z</time>
      </trkpt>
      <trkpt lat="44.15534" lon="5.0022">
        <ele>259</ele>
        <time>2022-01-29T10:17:32Z</time>
      </trkpt>
      <trkpt lat="44.15519" lon="5.00231">
        <ele>253</ele>
        <time>2022-01-29T10:17:42Z</time>
      </trkpt>
      <trkpt lat="44.15504" lon="5.00242">
        <ele>248</ele>
        <time>2022-01-29T10:17:53Z</time>
      </trkpt>
      <trkpt lat="44.15495" lon="5.00249">
        <ele>246</ele>
        <time>2022-01-29T10:18:04Z</time>
      </trkpt>
      <trkpt lat="44.15486" lon="5.00256">
        <ele>246</ele>
        <time>2022-01-29T10:18:16Z</time>
      </trkpt>
      <trkpt lat="44.15475" lon="5.00258">
        <ele>245</ele>
        <time>2022-01-29T10:18:26Z</time>
      </trkpt>
      <trkpt lat="44.15474" lon="5.00258">
        <ele>245</ele>
        <time>2022-01-29T10:18:27Z</time>
      </trkpt>
      <trkpt lat="44.15473" lon="5.00257">
        <ele>245</ele>
        <time>2022-01-29T10:18:28Z</time>
      </trkpt>
      <trkpt lat="44.15455" lon="5.00253">
        <ele>242</ele>
        <time>2022-01-29T10:18:39Z</time>
      </trkpt>
      <trkpt lat="44.1545" lon="5.00264">
        <ele>242</ele>
        <time>2022-01-29T10:18:50Z</time>
      </trkpt>
      <trkpt lat="44.15448" lon="5.00267">
        <ele>243</ele>
        <time>2022-01-29T10:19:15Z</time>
      </trkpt>
      <trkpt lat="44.15447" lon="5.00268">
        <ele>242</ele>
        <time>2022-01-29T10:19:16Z</time>
      </trkpt>
      <trkpt lat="44.15446" lon="5.00269">
        <ele>242</ele>
        <time>2022-01-29T10:19:17Z</time>
      </trkpt>
      <trkpt lat="44.15444" lon="5.00269">
        <ele>242</ele>
        <time>2022-01-29T10:19:18Z</time>
      </trkpt>
      <trkpt lat="44.15441" lon="5.00265">
        <ele>242</ele>
        <time>2022-01-29T10:19:22Z</time>
      </trkpt>
      <trkpt lat="44.1544" lon="5.00261">
        <ele>242</ele>
        <time>2022-01-29T10:19:24Z</time>
      </trkpt>
      <trkpt lat="44.15439" lon="5.00259">
        <ele>242</ele>
        <time>2022-01-29T10:19:25Z</time>
      </trkpt>
      <trkpt lat="44.15438" lon="5.00247">
        <ele>242</ele>
        <time>2022-01-29T10:19:33Z</time>
      </trkpt>
      <trkpt lat="44.15436" lon="5.00225">
        <ele>244</ele>
        <time>2022-01-29T10:19:43Z</time>
      </trkpt>
      <trkpt lat="44.15433" lon="5.0022">
        <ele>245</ele>
        <time>2022-01-29T10:19:46Z</time>
      </trkpt>
      <trkpt lat="44.15432" lon="5.00218">
        <ele>246</ele>
        <time>2022-01-29T10:19:47Z</time>
      </trkpt>
      <trkpt lat="44.15418" lon="5.00197">
        <ele>251</ele>
        <time>2022-01-29T10:20:01Z</time>
      </trkpt>
      <trkpt lat="44.1541" lon="5.00178">
        <ele>255</ele>
        <time>2022-01-29T10:20:14Z</time>
      </trkpt>
      <trkpt lat="44.15404" lon="5.00165">
        <ele>258</ele>
        <time>2022-01-29T10:20:26Z</time>
      </trkpt>
      <trkpt lat="44.15398" lon="5.00148">
        <ele>260</ele>
        <time>2022-01-29T10:20:38Z</time>
      </trkpt>
      <trkpt lat="44.15398" lon="5.00146">
        <ele>260</ele>
        <time>2022-01-29T10:20:40Z</time>
      </trkpt>
      <trkpt lat="44.15401" lon="5.00121">
        <ele>261</ele>
        <time>2022-01-29T10:20:51Z</time>
      </trkpt>
      <trkpt lat="44.15404" lon="5.00096">
        <ele>262</ele>
        <time>2022-01-29T10:21:03Z</time>
      </trkpt>
      <trkpt lat="44.15406" lon="5.00074">
        <ele>264</ele>
        <time>2022-01-29T10:21:14Z</time>
      </trkpt>
      <trkpt lat="44.15403" lon="5.00059">
        <ele>267</ele>
        <time>2022-01-29T10:21:26Z</time>
      </trkpt>
      <trkpt lat="44.154" lon="5.00053">
        <ele>268</ele>
        <time>2022-01-29T10:21:30Z</time>
      </trkpt>
      <trkpt lat="44.15395" lon="5.00045">
        <ele>269</ele>
        <time>2022-01-29T10:21:37Z</time>
      </trkpt>
      <trkpt lat="44.15382" lon="5.00025">
        <ele>271</ele>
        <time>2022-01-29T10:21:50Z</time>
      </trkpt>
      <trkpt lat="44.15365" lon="5.00021">
        <ele>276</ele>
        <time>2022-01-29T10:22:02Z</time>
      </trkpt>
      <trkpt lat="44.15353" lon="5.00023">
        <ele>278</ele>
        <time>2022-01-29T10:22:11Z</time>
      </trkpt>
      <trkpt lat="44.15344" lon="5.00024">
        <ele>279</ele>
        <time>2022-01-29T10:22:18Z</time>
      </trkpt>
      <trkpt lat="44.15343" lon="5.00024">
        <ele>279</ele>
        <time>2022-01-29T10:22:19Z</time>
      </trkpt>
      <trkpt lat="44.15341" lon="5.00025">
        <ele>279</ele>
        <time>2022-01-29T10:22:20Z</time>
      </trkpt>
      <trkpt lat="44.15337" lon="5.00024">
        <ele>279</ele>
        <time>2022-01-29T10:22:23Z</time>
      </trkpt>
      <trkpt lat="44.15335" lon="5.00024">
        <ele>279</ele>
        <time>2022-01-29T10:22:24Z</time>
      </trkpt>
      <trkpt lat="44.15333" lon="5.00025">
        <ele>279</ele>
        <time>2022-01-29T10:22:25Z</time>
      </trkpt>
      <trkpt lat="44.15331" lon="5.00025">
        <ele>279</ele>
        <time>2022-01-29T10:22:26Z</time>
      </trkpt>
      <trkpt lat="44.15329" lon="5.00025">
        <ele>280</ele>
        <time>2022-01-29T10:22:27Z</time>
      </trkpt>
      <trkpt lat="44.15327" lon="5.00025">
        <ele>280</ele>
        <time>2022-01-29T10:22:28Z</time>
      </trkpt>
      <trkpt lat="44.1532" lon="5.00024">
        <ele>281</ele>
        <time>2022-01-29T10:22:33Z</time>
      </trkpt>
      <trkpt lat="44.15309" lon="5.00022">
        <ele>281</ele>
        <time>2022-01-29T10:22:41Z</time>
      </trkpt>
      <trkpt lat="44.15309" lon="5.00019">
        <ele>281</ele>
        <time>2022-01-29T10:22:42Z</time>
      </trkpt>
      <trkpt lat="44.15304" lon="5.00004">
        <ele>279</ele>
        <time>2022-01-29T10:22:50Z</time>
      </trkpt>
      <trkpt lat="44.15303" lon="5.00001">
        <ele>279</ele>
        <time>2022-01-29T10:22:51Z</time>
      </trkpt>
      <trkpt lat="44.15302" lon="4.99999">
        <ele>280</ele>
        <time>2022-01-29T10:22:52Z</time>
      </trkpt>
      <trkpt lat="44.15301" lon="4.99996">
        <ele>280</ele>
        <time>2022-01-29T10:22:53Z</time>
      </trkpt>
      <trkpt lat="44.153" lon="4.99994">
        <ele>280</ele>
        <time>2022-01-29T10:22:54Z</time>
      </trkpt>
      <trkpt lat="44.15299" lon="4.99992">
        <ele>279</ele>
        <time>2022-01-29T10:22:55Z</time>
      </trkpt>
      <trkpt lat="44.15297" lon="4.9999">
        <ele>279</ele>
        <time>2022-01-29T10:22:56Z</time>
      </trkpt>
      <trkpt lat="44.15288" lon="4.99965">
        <ele>276</ele>
        <time>2022-01-29T10:23:08Z</time>
      </trkpt>
      <trkpt lat="44.15289" lon="4.99963">
        <ele>275</ele>
        <time>2022-01-29T10:23:09Z</time>
      </trkpt>
      <trkpt lat="44.15289" lon="4.99961">
        <ele>275</ele>
        <time>2022-01-29T10:23:10Z</time>
      </trkpt>
      <trkpt lat="44.15288" lon="4.99959">
        <ele>275</ele>
        <time>2022-01-29T10:23:11Z</time>
      </trkpt>
      <trkpt lat="44.15288" lon="4.99958">
        <ele>274</ele>
        <time>2022-01-29T10:23:12Z</time>
      </trkpt>
      <trkpt lat="44.15287" lon="4.99952">
        <ele>273</ele>
        <time>2022-01-29T10:23:20Z</time>
      </trkpt>
      <trkpt lat="44.15286" lon="4.99949">
        <ele>273</ele>
        <time>2022-01-29T10:23:24Z</time>
      </trkpt>
      <trkpt lat="44.15285" lon="4.99948">
        <ele>273</ele>
        <time>2022-01-29T10:23:25Z</time>
      </trkpt>
      <trkpt lat="44.15279" lon="4.99943">
        <ele>272</ele>
        <time>2022-01-29T10:23:31Z</time>
      </trkpt>
      <trkpt lat="44.15258" lon="4.99945">
        <ele>274</ele>
        <time>2022-01-29T10:23:44Z</time>
      </trkpt>
      <trkpt lat="44.15232" lon="4.99955">
        <ele>274</ele>
        <time>2022-01-29T10:23:59Z</time>
      </trkpt>
      <trkpt lat="44.1521" lon="4.99964">
        <ele>273</ele>
        <time>2022-01-29T10:24:12Z</time>
      </trkpt>
      <trkpt lat="44.15194" lon="4.99978">
        <ele>274</ele>
        <time>2022-01-29T10:24:23Z</time>
      </trkpt>
      <trkpt lat="44.15181" lon="4.99997">
        <ele>276</ele>
        <time>2022-01-29T10:24:34Z</time>
      </trkpt>
      <trkpt lat="44.15162" lon="5.00014">
        <ele>281</ele>
        <time>2022-01-29T10:24:48Z</time>
      </trkpt>
      <trkpt lat="44.15143" lon="5.00029">
        <ele>282</ele>
        <time>2022-01-29T10:25:01Z</time>
      </trkpt>
      <trkpt lat="44.15138" lon="5.00031">
        <ele>282</ele>
        <time>2022-01-29T10:25:04Z</time>
      </trkpt>
      <trkpt lat="44.15136" lon="5.00031">
        <ele>282</ele>
        <time>2022-01-29T10:25:05Z</time>
      </trkpt>
      <trkpt lat="44.15135" lon="5.00032">
        <ele>282</ele>
        <time>2022-01-29T10:25:06Z</time>
      </trkpt>
      <trkpt lat="44.15133" lon="5.00032">
        <ele>282</ele>
        <time>2022-01-29T10:25:07Z</time>
      </trkpt>
      <trkpt lat="44.15131" lon="5.00032">
        <ele>282</ele>
        <time>2022-01-29T10:25:08Z</time>
      </trkpt>
      <trkpt lat="44.1513" lon="5.00031">
        <ele>281</ele>
        <time>2022-01-29T10:25:09Z</time>
      </trkpt>
      <trkpt lat="44.15129" lon="5.0003">
        <ele>281</ele>
        <time>2022-01-29T10:25:10Z</time>
      </trkpt>
      <trkpt lat="44.15127" lon="5.00028">
        <ele>281</ele>
        <time>2022-01-29T10:25:11Z</time>
      </trkpt>
      <trkpt lat="44.15126" lon="5.00027">
        <ele>280</ele>
        <time>2022-01-29T10:25:12Z</time>
      </trkpt>
      <trkpt lat="44.15122" lon="5.00021">
        <ele>278</ele>
        <time>2022-01-29T10:25:17Z</time>
      </trkpt>
      <trkpt lat="44.1512" lon="5.0002">
        <ele>278</ele>
        <time>2022-01-29T10:25:18Z</time>
      </trkpt>
      <trkpt lat="44.15109" lon="5.0001">
        <ele>275</ele>
        <time>2022-01-29T10:25:28Z</time>
      </trkpt>
      <trkpt lat="44.15101" lon="4.99996">
        <ele>266</ele>
        <time>2022-01-29T10:25:37Z</time>
      </trkpt>
      <trkpt lat="44.15098" lon="4.99995">
        <ele>266</ele>
        <time>2022-01-29T10:25:39Z</time>
      </trkpt>
      <trkpt lat="44.15097" lon="4.99994">
        <ele>265</ele>
        <time>2022-01-29T10:25:40Z</time>
      </trkpt>
      <trkpt lat="44.15095" lon="4.99995">
        <ele>265</ele>
        <time>2022-01-29T10:25:41Z</time>
      </trkpt>
      <trkpt lat="44.15093" lon="4.99995">
        <ele>265</ele>
        <time>2022-01-29T10:25:43Z</time>
      </trkpt>
      <trkpt lat="44.1508" lon="4.99996">
        <ele>263</ele>
        <time>2022-01-29T10:25:53Z</time>
      </trkpt>
      <trkpt lat="44.15065" lon="4.99998">
        <ele>260</ele>
        <time>2022-01-29T10:26:04Z</time>
      </trkpt>
      <trkpt lat="44.15052" lon="5.0002">
        <ele>263</ele>
        <time>2022-01-29T10:26:18Z</time>
      </trkpt>
      <trkpt lat="44.15043" lon="5.00038">
        <ele>261</ele>
        <time>2022-01-29T10:26:29Z</time>
      </trkpt>
      <trkpt lat="44.1504" lon="5.00053">
        <ele>262</ele>
        <time>2022-01-29T10:26:39Z</time>
      </trkpt>
      <trkpt lat="44.15039" lon="5.00056">
        <ele>261</ele>
        <time>2022-01-29T10:26:40Z</time>
      </trkpt>
      <trkpt lat="44.15037" lon="5.00059">
        <ele>261</ele>
        <time>2022-01-29T10:26:41Z</time>
      </trkpt>
      <trkpt lat="44.15035" lon="5.0006">
        <ele>260</ele>
        <time>2022-01-29T10:26:42Z</time>
      </trkpt>
      <trkpt lat="44.15033" lon="5.00061">
        <ele>259</ele>
        <time>2022-01-29T10:26:43Z</time>
      </trkpt>
      <trkpt lat="44.15031" lon="5.00063">
        <ele>258</ele>
        <time>2022-01-29T10:26:44Z</time>
      </trkpt>
      <trkpt lat="44.15029" lon="5.00064">
        <ele>257</ele>
        <time>2022-01-29T10:26:45Z</time>
      </trkpt>
      <trkpt lat="44.15027" lon="5.00064">
        <ele>257</ele>
        <time>2022-01-29T10:26:46Z</time>
      </trkpt>
      <trkpt lat="44.15026" lon="5.00065">
        <ele>256</ele>
        <time>2022-01-29T10:26:47Z</time>
      </trkpt>
      <trkpt lat="44.15022" lon="5.00065">
        <ele>256</ele>
        <time>2022-01-29T10:26:50Z</time>
      </trkpt>
      <trkpt lat="44.1502" lon="5.00065">
        <ele>256</ele>
        <time>2022-01-29T10:26:51Z</time>
      </trkpt>
      <trkpt lat="44.15019" lon="5.00065">
        <ele>256</ele>
        <time>2022-01-29T10:26:52Z</time>
      </trkpt>
      <trkpt lat="44.1501" lon="5.00068">
        <ele>255</ele>
        <time>2022-01-29T10:26:59Z</time>
      </trkpt>
      <trkpt lat="44.15004" lon="5.00071">
        <ele>255</ele>
        <time>2022-01-29T10:27:03Z</time>
      </trkpt>
      <trkpt lat="44.15002" lon="5.00072">
        <ele>255</ele>
        <time>2022-01-29T10:27:04Z</time>
      </trkpt>
      <trkpt lat="44.15001" lon="5.00073">
        <ele>255</ele>
        <time>2022-01-29T10:27:05Z</time>
      </trkpt>
      <trkpt lat="44.14999" lon="5.00074">
        <ele>255</ele>
        <time>2022-01-29T10:27:06Z</time>
      </trkpt>
      <trkpt lat="44.14997" lon="5.00075">
        <ele>255</ele>
        <time>2022-01-29T10:27:07Z</time>
      </trkpt>
      <trkpt lat="44.14976" lon="5.00084">
        <ele>257</ele>
        <time>2022-01-29T10:27:21Z</time>
      </trkpt>
      <trkpt lat="44.14975" lon="5.00084">
        <ele>257</ele>
        <time>2022-01-29T10:27:22Z</time>
      </trkpt>
      <trkpt lat="44.14965" lon="5.00085">
        <ele>257</ele>
        <time>2022-01-29T10:27:29Z</time>
      </trkpt>
      <trkpt lat="44.14948" lon="5.00075">
        <ele>253</ele>
        <time>2022-01-29T10:27:41Z</time>
      </trkpt>
      <trkpt lat="44.14946" lon="5.00073">
        <ele>252</ele>
        <time>2022-01-29T10:27:42Z</time>
      </trkpt>
      <trkpt lat="44.14945" lon="5.00071">
        <ele>252</ele>
        <time>2022-01-29T10:27:43Z</time>
      </trkpt>
      <trkpt lat="44.14945" lon="5.00069">
        <ele>251</ele>
        <time>2022-01-29T10:27:44Z</time>
      </trkpt>
      <trkpt lat="44.14946" lon="5.00068">
        <ele>251</ele>
        <time>2022-01-29T10:27:45Z</time>
      </trkpt>
      <trkpt lat="44.14947" lon="5.00068">
        <ele>251</ele>
        <time>2022-01-29T10:27:46Z</time>
      </trkpt>
      <trkpt lat="44.14964" lon="5.00063">
        <ele>251</ele>
        <time>2022-01-29T10:27:58Z</time>
      </trkpt>
      <trkpt lat="44.14965" lon="5.00062">
        <ele>250</ele>
        <time>2022-01-29T10:27:59Z</time>
      </trkpt>
      <trkpt lat="44.14967" lon="5.0006">
        <ele>250</ele>
        <time>2022-01-29T10:28:01Z</time>
      </trkpt>
      <trkpt lat="44.14968" lon="5.00059">
        <ele>250</ele>
        <time>2022-01-29T10:28:02Z</time>
      </trkpt>
      <trkpt lat="44.14971" lon="5.00057">
        <ele>249</ele>
        <time>2022-01-29T10:28:04Z</time>
      </trkpt>
      <trkpt lat="44.14972" lon="5.00055">
        <ele>249</ele>
        <time>2022-01-29T10:28:05Z</time>
      </trkpt>
      <trkpt lat="44.14973" lon="5.00054">
        <ele>249</ele>
        <time>2022-01-29T10:28:06Z</time>
      </trkpt>
      <trkpt lat="44.14988" lon="5.00037">
        <ele>246</ele>
        <time>2022-01-29T10:28:17Z</time>
      </trkpt>
      <trkpt lat="44.14996" lon="5.00024">
        <ele>244</ele>
        <time>2022-01-29T10:28:25Z</time>
      </trkpt>
      <trkpt lat="44.15004" lon="5.00009">
        <ele>244</ele>
        <time>2022-01-29T10:37:33Z</time>
      </trkpt>
      <trkpt lat="44.15013" lon="4.99979">
        <ele>244</ele>
        <time>2022-01-29T10:37:46Z</time>
      </trkpt>
      <trkpt lat="44.1502" lon="4.99954">
        <ele>242</ele>
        <time>2022-01-29T10:37:57Z</time>
      </trkpt>
      <trkpt lat="44.1503" lon="4.99932">
        <ele>240</ele>
        <time>2022-01-29T10:38:07Z</time>
      </trkpt>
      <trkpt lat="44.1504" lon="4.99905">
        <ele>238</ele>
        <time>2022-01-29T10:38:19Z</time>
      </trkpt>
      <trkpt lat="44.15048" lon="4.99886">
        <ele>236</ele>
        <time>2022-01-29T10:38:29Z</time>
      </trkpt>
      <trkpt lat="44.1505" lon="4.9988">
        <ele>236</ele>
        <time>2022-01-29T10:38:37Z</time>
      </trkpt>
      <trkpt lat="44.15042" lon="4.99867">
        <ele>233</ele>
        <time>2022-01-29T10:38:45Z</time>
      </trkpt>
      <trkpt lat="44.15035" lon="4.99856">
        <ele>231</ele>
        <time>2022-01-29T10:38:51Z</time>
      </trkpt>
      <trkpt lat="44.15033" lon="4.99854">
        <ele>230</ele>
        <time>2022-01-29T10:38:53Z</time>
      </trkpt>
      <trkpt lat="44.15023" lon="4.99852">
        <ele>229</ele>
        <time>2022-01-29T10:39:01Z</time>
      </trkpt>
      <trkpt lat="44.15019" lon="4.99856">
        <ele>229</ele>
        <time>2022-01-29T10:39:05Z</time>
      </trkpt>
      <trkpt lat="44.1501" lon="4.99854">
        <ele>228</ele>
        <time>2022-01-29T10:39:12Z</time>
      </trkpt>
      <trkpt lat="44.15007" lon="4.99834">
        <ele>226</ele>
        <time>2022-01-29T10:39:23Z</time>
      </trkpt>
      <trkpt lat="44.15" lon="4.99815">
        <ele>223</ele>
        <time>2022-01-29T10:39:33Z</time>
      </trkpt>
      <trkpt lat="44.14995" lon="4.99794">
        <ele>220</ele>
        <time>2022-01-29T10:39:44Z</time>
      </trkpt>
      <trkpt lat="44.14993" lon="4.99776">
        <ele>218</ele>
        <time>2022-01-29T10:39:53Z</time>
      </trkpt>
      <trkpt lat="44.15002" lon="4.9976">
        <ele>217</ele>
        <time>2022-01-29T10:40:04Z</time>
      </trkpt>
      <trkpt lat="44.15016" lon="4.99738">
        <ele>215</ele>
        <time>2022-01-29T10:40:15Z</time>
      </trkpt>
      <trkpt lat="44.15029" lon="4.99723">
        <ele>213</ele>
        <time>2022-01-29T10:40:26Z</time>
      </trkpt>
      <trkpt lat="44.15037" lon="4.99713">
        <ele>212</ele>
        <time>2022-01-29T10:40:33Z</time>
      </trkpt>
      <trkpt lat="44.15037" lon="4.99706">
        <ele>211</ele>
        <time>2022-01-29T10:40:37Z</time>
      </trkpt>
      <trkpt lat="44.15027" lon="4.99683">
        <ele>208</ele>
        <time>2022-01-29T10:40:49Z</time>
      </trkpt>
      <trkpt lat="44.15021" lon="4.99667">
        <ele>206</ele>
        <time>2022-01-29T10:40:56Z</time>
      </trkpt>
      <trkpt lat="44.15005" lon="4.99628">
        <ele>201</ele>
        <time>2022-01-29T10:41:13Z</time>
      </trkpt>
      <trkpt lat="44.14994" lon="4.99608">
        <ele>199</ele>
        <time>2022-01-29T10:41:24Z</time>
      </trkpt>
      <trkpt lat="44.14975" lon="4.99605">
        <ele>198</ele>
        <time>2022-01-29T10:41:36Z</time>
      </trkpt>
      <trkpt lat="44.1496" lon="4.99618">
        <ele>199</ele>
        <time>2022-01-29T10:41:48Z</time>
      </trkpt>
      <trkpt lat="44.14957" lon="4.99619">
        <ele>199</ele>
        <time>2022-01-29T10:41:50Z</time>
      </trkpt>
      <trkpt lat="44.14945" lon="4.99607">
        <ele>198</ele>
        <time>2022-01-29T10:42:01Z</time>
      </trkpt>
      <trkpt lat="44.14938" lon="4.99604">
        <ele>197</ele>
        <time>2022-01-29T10:42:06Z</time>
      </trkpt>
      <trkpt lat="44.14919" lon="4.99599">
        <ele>197</ele>
        <time>2022-01-29T10:42:18Z</time>
      </trkpt>
      <trkpt lat="44.14912" lon="4.99594">
        <ele>196</ele>
        <time>2022-01-29T10:42:23Z</time>
      </trkpt>
      <trkpt lat="44.14893" lon="4.9958">
        <ele>193</ele>
        <time>2022-01-29T10:42:37Z</time>
      </trkpt>
      <trkpt lat="44.14876" lon="4.9957">
        <ele>190</ele>
        <time>2022-01-29T10:42:49Z</time>
      </trkpt>
      <trkpt lat="44.14865" lon="4.99552">
        <ele>188</ele>
        <time>2022-01-29T10:43:00Z</time>
      </trkpt>
      <trkpt lat="44.14879" lon="4.99536">
        <ele>187</ele>
        <time>2022-01-29T10:43:11Z</time>
      </trkpt>
      <trkpt lat="44.14882" lon="4.99529">
        <ele>186</ele>
        <time>2022-01-29T10:43:15Z</time>
      </trkpt>
      <trkpt lat="44.14884" lon="4.99525">
        <ele>186</ele>
        <time>2022-01-29T10:43:17Z</time>
      </trkpt>
      <trkpt lat="44.14885" lon="4.99494">
        <ele>182</ele>
        <time>2022-01-29T10:43:30Z</time>
      </trkpt>
      <trkpt lat="44.14883" lon="4.99459">
        <ele>179</ele>
        <time>2022-01-29T10:43:44Z</time>
      </trkpt>
      <trkpt lat="44.14876" lon="4.99435">
        <ele>177</ele>
        <time>2022-01-29T10:43:55Z</time>
      </trkpt>
      <trkpt lat="44.14872" lon="4.99412">
        <ele>175</ele>
        <time>2022-01-29T10:44:05Z</time>
      </trkpt>
      <trkpt lat="44.14862" lon="4.99383">
        <ele>172</ele>
        <time>2022-01-29T10:44:19Z</time>
      </trkpt>
      <trkpt lat="44.1485" lon="4.99358">
        <ele>170</ele>
        <time>2022-01-29T10:44:31Z</time>
      </trkpt>
      <trkpt lat="44.1483" lon="4.99339">
        <ele>169</ele>
        <time>2022-01-29T10:44:44Z</time>
      </trkpt>
      <trkpt lat="44.14808" lon="4.99333">
        <ele>168</ele>
        <time>2022-01-29T10:44:57Z</time>
      </trkpt>
      <trkpt lat="44.14788" lon="4.99325">
        <ele>167</ele>
        <time>2022-01-29T10:45:10Z</time>
      </trkpt>
      <trkpt lat="44.1477" lon="4.99318">
        <ele>167</ele>
        <time>2022-01-29T10:45:21Z</time>
      </trkpt>
      <trkpt lat="44.14758" lon="4.99315">
        <ele>166</ele>
        <time>2022-01-29T10:45:31Z</time>
      </trkpt>
      <trkpt lat="44.14754" lon="4.99304">
        <ele>165</ele>
        <time>2022-01-29T10:45:40Z</time>
      </trkpt>
      <trkpt lat="44.14748" lon="4.99286">
        <ele>164</ele>
        <time>2022-01-29T10:45:50Z</time>
      </trkpt>
      <trkpt lat="44.14744" lon="4.99265">
        <ele>163</ele>
        <time>2022-01-29T10:46:00Z</time>
      </trkpt>
      <trkpt lat="44.1474" lon="4.99243">
        <ele>163</ele>
        <time>2022-01-29T10:46:11Z</time>
      </trkpt>
      <trkpt lat="44.14734" lon="4.9922">
        <ele>166</ele>
        <time>2022-01-29T10:46:21Z</time>
      </trkpt>
      <trkpt lat="44.14721" lon="4.99203">
        <ele>168</ele>
        <time>2022-01-29T10:46:31Z</time>
      </trkpt>
      <trkpt lat="44.14696" lon="4.99194">
        <ele>168</ele>
        <time>2022-01-29T10:46:45Z</time>
      </trkpt>
      <trkpt lat="44.14692" lon="4.99194">
        <ele>168</ele>
        <time>2022-01-29T10:46:50Z</time>
      </trkpt>
      <trkpt lat="44.14687" lon="4.99194">
        <ele>168</ele>
        <time>2022-01-29T10:46:54Z</time>
      </trkpt>
      <trkpt lat="44.14664" lon="4.99198">
        <ele>166</ele>
        <time>2022-01-29T10:47:07Z</time>
      </trkpt>
      <trkpt lat="44.14644" lon="4.99196">
        <ele>165</ele>
        <time>2022-01-29T10:47:20Z</time>
      </trkpt>
      <trkpt lat="44.14623" lon="4.99186">
        <ele>165</ele>
        <time>2022-01-29T10:47:33Z</time>
      </trkpt>
      <trkpt lat="44.14601" lon="4.99179">
        <ele>164</ele>
        <time>2022-01-29T10:47:45Z</time>
      </trkpt>
      <trkpt lat="44.14594" lon="4.99177">
        <ele>163</ele>
        <time>2022-01-29T10:47:49Z</time>
      </trkpt>
      <trkpt lat="44.14571" lon="4.99176">
        <ele>162</ele>
        <time>2022-01-29T10:48:00Z</time>
      </trkpt>
      <trkpt lat="44.14549" lon="4.99172">
        <ele>161</ele>
        <time>2022-01-29T10:48:12Z</time>
      </trkpt>
      <trkpt lat="44.1452" lon="4.99168">
        <ele>160</ele>
        <time>2022-01-29T10:48:27Z</time>
      </trkpt>
      <trkpt lat="44.14497" lon="4.99166">
        <ele>159</ele>
        <time>2022-01-29T10:48:39Z</time>
      </trkpt>
      <trkpt lat="44.14475" lon="4.9916">
        <ele>158</ele>
        <time>2022-01-29T10:48:51Z</time>
      </trkpt>
      <trkpt lat="44.14454" lon="4.99155">
        <ele>157</ele>
        <time>2022-01-29T10:49:02Z</time>
      </trkpt>
      <trkpt lat="44.14433" lon="4.99149">
        <ele>156</ele>
        <time>2022-01-29T10:49:14Z</time>
      </trkpt>
      <trkpt lat="44.14409" lon="4.99141">
        <ele>155</ele>
        <time>2022-01-29T10:49:28Z</time>
      </trkpt>
      <trkpt lat="44.14386" lon="4.99134">
        <ele>154</ele>
        <time>2022-01-29T10:49:42Z</time>
      </trkpt>
      <trkpt lat="44.14361" lon="4.99121">
        <ele>154</ele>
        <time>2022-01-29T10:49:55Z</time>
      </trkpt>
      <trkpt lat="44.14337" lon="4.99115">
        <ele>152</ele>
        <time>2022-01-29T10:50:08Z</time>
      </trkpt>
      <trkpt lat="44.14323" lon="4.99109">
        <ele>151</ele>
        <time>2022-01-29T10:50:18Z</time>
      </trkpt>
      <trkpt lat="44.14303" lon="4.99104">
        <ele>150</ele>
        <time>2022-01-29T10:50:30Z</time>
      </trkpt>
      <trkpt lat="44.14278" lon="4.99098">
        <ele>149</ele>
        <time>2022-01-29T10:50:44Z</time>
      </trkpt>
      <trkpt lat="44.14256" lon="4.99093">
        <ele>147</ele>
        <time>2022-01-29T10:50:56Z</time>
      </trkpt>
      <trkpt lat="44.14236" lon="4.99086">
        <ele>146</ele>
        <time>2022-01-29T10:51:08Z</time>
      </trkpt>
      <trkpt lat="44.14217" lon="4.99077">
        <ele>145</ele>
        <time>2022-01-29T10:51:21Z</time>
      </trkpt>
      <trkpt lat="44.14195" lon="4.99059">
        <ele>143</ele>
        <time>2022-01-29T10:51:35Z</time>
      </trkpt>
      <trkpt lat="44.14174" lon="4.99041">
        <ele>142</ele>
        <time>2022-01-29T10:51:49Z</time>
      </trkpt>
      <trkpt lat="44.14154" lon="4.99028">
        <ele>140</ele>
        <time>2022-01-29T10:52:01Z</time>
      </trkpt>
      <trkpt lat="44.14152" lon="4.99027">
        <ele>140</ele>
        <time>2022-01-29T10:52:02Z</time>
      </trkpt>
      <trkpt lat="44.14151" lon="4.99026">
        <ele>140</ele>
        <time>2022-01-29T10:52:03Z</time>
      </trkpt>
      <trkpt lat="44.14149" lon="4.99024">
        <ele>140</ele>
        <time>2022-01-29T10:52:04Z</time>
      </trkpt>
      <trkpt lat="44.14147" lon="4.99023">
        <ele>140</ele>
        <time>2022-01-29T10:52:05Z</time>
      </trkpt>
      <trkpt lat="44.14146" lon="4.99022">
        <ele>140</ele>
        <time>2022-01-29T10:52:06Z</time>
      </trkpt>
      <trkpt lat="44.14144" lon="4.99022">
        <ele>140</ele>
        <time>2022-01-29T10:52:07Z</time>
      </trkpt>
      <trkpt lat="44.14123" lon="4.99019">
        <ele>138</ele>
        <time>2022-01-29T10:52:20Z</time>
      </trkpt>
      <trkpt lat="44.14105" lon="4.9902">
        <ele>136</ele>
        <time>2022-01-29T10:52:31Z</time>
      </trkpt>
      <trkpt lat="44.14087" lon="4.99017">
        <ele>134</ele>
        <time>2022-01-29T10:52:43Z</time>
      </trkpt>
      <trkpt lat="44.14067" lon="4.99013">
        <ele>133</ele>
        <time>2022-01-29T10:52:55Z</time>
      </trkpt>
      <trkpt lat="44.1406" lon="4.99011">
        <ele>132</ele>
        <time>2022-01-29T10:52:59Z</time>
      </trkpt>
      <trkpt lat="44.14059" lon="4.9901">
        <ele>132</ele>
        <time>2022-01-29T10:53:00Z</time>
      </trkpt>
      <trkpt lat="44.14037" lon="4.98996">
        <ele>130</ele>
        <time>2022-01-29T10:53:13Z</time>
      </trkpt>
      <trkpt lat="44.14019" lon="4.98983">
        <ele>130</ele>
        <time>2022-01-29T10:53:25Z</time>
      </trkpt>
      <trkpt lat="44.13997" lon="4.98969">
        <ele>129</ele>
        <time>2022-01-29T10:53:39Z</time>
      </trkpt>
      <trkpt lat="44.13971" lon="4.98956">
        <ele>129</ele>
        <time>2022-01-29T10:53:53Z</time>
      </trkpt>
      <trkpt lat="44.13951" lon="4.98943">
        <ele>129</ele>
        <time>2022-01-29T10:54:06Z</time>
      </trkpt>
      <trkpt lat="44.1395" lon="4.98942">
        <ele>129</ele>
        <time>2022-01-29T10:54:07Z</time>
      </trkpt>
      <trkpt lat="44.13932" lon="4.98928">
        <ele>127</ele>
        <time>2022-01-29T10:54:19Z</time>
      </trkpt>
      <trkpt lat="44.13914" lon="4.98908">
        <ele>126</ele>
        <time>2022-01-29T10:54:32Z</time>
      </trkpt>
      <trkpt lat="44.13899" lon="4.98882">
        <ele>125</ele>
        <time>2022-01-29T10:54:45Z</time>
      </trkpt>
      <trkpt lat="44.13881" lon="4.98854">
        <ele>124</ele>
        <time>2022-01-29T10:54:59Z</time>
      </trkpt>
      <trkpt lat="44.13866" lon="4.98828">
        <ele>124</ele>
        <time>2022-01-29T10:55:13Z</time>
      </trkpt>
      <trkpt lat="44.13851" lon="4.98801">
        <ele>123</ele>
        <time>2022-01-29T10:55:27Z</time>
      </trkpt>
      <trkpt lat="44.13838" lon="4.98775">
        <ele>124</ele>
        <time>2022-01-29T10:55:39Z</time>
      </trkpt>
      <trkpt lat="44.13833" lon="4.98747">
        <ele>124</ele>
        <time>2022-01-29T10:55:52Z</time>
      </trkpt>
      <trkpt lat="44.13833" lon="4.98725">
        <ele>123</ele>
        <time>2022-01-29T10:56:03Z</time>
      </trkpt>
      <trkpt lat="44.13833" lon="4.987">
        <ele>123</ele>
        <time>2022-01-29T10:56:59Z</time>
      </trkpt>
    </trkseg>
  </trk>
</gpx>